<?xml version="1.0" encoding="UTF-8" standalone="no" ?>
<gpx xmlns="http://www.topografix.com/GPX/1/1" xmlns:xsi="http://www.w3.org/2001/XMLSchema-instance" xsi:schemaLocation="http://www.topografix.com/GPX/1/1 http://www.topografix.com/GPX/1/1/gpx.xsd" version="1.1" creator="VisuGPX - https://www.visugpx.com">
  <metadata>
    <name>Carlit</name>
    <desc><![CDATA[Pic Carlit]]></desc>
  </metadata>
  <trk>
    <name><![CDATA[2012-0906 Puig Carlit-MNT]]></name>
    <trkseg>
      <trkpt lat="42.5594" lon="2.00162">
        <ele>1994</ele>
        <time>2012-09-06T08:44:38Z</time>
      </trkpt>
      <trkpt lat="42.55955" lon="2.00153">
        <ele>1995</ele>
        <time>2012-09-06T08:45:08Z</time>
      </trkpt>
      <trkpt lat="42.55963" lon="2.00118">
        <ele>1998</ele>
        <time>2012-09-06T08:45:38Z</time>
      </trkpt>
      <trkpt lat="42.55974" lon="2.00076">
        <ele>2000</ele>
        <time>2012-09-06T08:46:08Z</time>
      </trkpt>
      <trkpt lat="42.55972" lon="2.0003">
        <ele>2001</ele>
        <time>2012-09-06T08:46:39Z</time>
      </trkpt>
      <trkpt lat="42.55971" lon="1.99994">
        <ele>2003</ele>
        <time>2012-09-06T08:47:09Z</time>
      </trkpt>
      <trkpt lat="42.55974" lon="1.9996">
        <ele>2007</ele>
        <time>2012-09-06T08:47:39Z</time>
      </trkpt>
      <trkpt lat="42.55968" lon="1.99936">
        <ele>2009</ele>
        <time>2012-09-06T08:48:10Z</time>
      </trkpt>
      <trkpt lat="42.55968" lon="1.99922">
        <ele>2010</ele>
        <time>2012-09-06T08:48:40Z</time>
      </trkpt>
      <trkpt lat="42.55968" lon="1.99903">
        <ele>2012</ele>
        <time>2012-09-06T08:49:10Z</time>
      </trkpt>
      <trkpt lat="42.55969" lon="1.99873">
        <ele>2013</ele>
        <time>2012-09-06T08:49:41Z</time>
      </trkpt>
      <trkpt lat="42.5597" lon="1.99859">
        <ele>2014</ele>
        <time>2012-09-06T08:50:11Z</time>
      </trkpt>
      <trkpt lat="42.55976" lon="1.99828">
        <ele>2015</ele>
        <time>2012-09-06T08:50:41Z</time>
      </trkpt>
      <trkpt lat="42.55982" lon="1.99797">
        <ele>2017</ele>
        <time>2012-09-06T08:51:11Z</time>
      </trkpt>
      <trkpt lat="42.55987" lon="1.9977">
        <ele>2019</ele>
        <time>2012-09-06T08:51:42Z</time>
      </trkpt>
      <trkpt lat="42.55985" lon="1.99748">
        <ele>2021</ele>
        <time>2012-09-06T08:52:12Z</time>
      </trkpt>
      <trkpt lat="42.55981" lon="1.99719">
        <ele>2024</ele>
        <time>2012-09-06T08:52:42Z</time>
      </trkpt>
      <trkpt lat="42.55972" lon="1.99688">
        <ele>2024</ele>
        <time>2012-09-06T08:53:13Z</time>
      </trkpt>
      <trkpt lat="42.5598" lon="1.99652">
        <ele>2027</ele>
        <time>2012-09-06T08:53:43Z</time>
      </trkpt>
      <trkpt lat="42.55992" lon="1.9963">
        <ele>2029</ele>
        <time>2012-09-06T08:54:13Z</time>
      </trkpt>
      <trkpt lat="42.55997" lon="1.99619">
        <ele>2031</ele>
        <time>2012-09-06T08:54:44Z</time>
      </trkpt>
      <trkpt lat="42.56004" lon="1.99598">
        <ele>2033</ele>
        <time>2012-09-06T08:55:14Z</time>
      </trkpt>
      <trkpt lat="42.56007" lon="1.99567">
        <ele>2035</ele>
        <time>2012-09-06T08:55:44Z</time>
      </trkpt>
      <trkpt lat="42.56007" lon="1.99553">
        <ele>2036</ele>
        <time>2012-09-06T08:56:15Z</time>
      </trkpt>
      <trkpt lat="42.56012" lon="1.99529">
        <ele>2038</ele>
        <time>2012-09-06T08:56:45Z</time>
      </trkpt>
      <trkpt lat="42.56018" lon="1.99512">
        <ele>2041</ele>
        <time>2012-09-06T08:57:15Z</time>
      </trkpt>
      <trkpt lat="42.56024" lon="1.99498">
        <ele>2044</ele>
        <time>2012-09-06T08:57:46Z</time>
      </trkpt>
      <trkpt lat="42.56026" lon="1.99484">
        <ele>2046</ele>
        <time>2012-09-06T08:58:16Z</time>
      </trkpt>
      <trkpt lat="42.5603" lon="1.99463">
        <ele>2050</ele>
        <time>2012-09-06T08:58:46Z</time>
      </trkpt>
      <trkpt lat="42.56023" lon="1.99435">
        <ele>2053</ele>
        <time>2012-09-06T08:59:17Z</time>
      </trkpt>
      <trkpt lat="42.5602" lon="1.99421">
        <ele>2054</ele>
        <time>2012-09-06T08:59:47Z</time>
      </trkpt>
      <trkpt lat="42.5602" lon="1.99408">
        <ele>2056</ele>
        <time>2012-09-06T09:00:17Z</time>
      </trkpt>
      <trkpt lat="42.56018" lon="1.99407">
        <ele>2056</ele>
        <time>2012-09-06T09:00:47Z</time>
      </trkpt>
      <trkpt lat="42.56015" lon="1.99398">
        <ele>2056</ele>
        <time>2012-09-06T09:01:18Z</time>
      </trkpt>
      <trkpt lat="42.56012" lon="1.99382">
        <ele>2057</ele>
        <time>2012-09-06T09:01:48Z</time>
      </trkpt>
      <trkpt lat="42.56008" lon="1.99378">
        <ele>2056</ele>
        <time>2012-09-06T09:02:18Z</time>
      </trkpt>
      <trkpt lat="42.56008" lon="1.99363">
        <ele>2058</ele>
        <time>2012-09-06T09:02:49Z</time>
      </trkpt>
      <trkpt lat="42.56003" lon="1.99348">
        <ele>2058</ele>
        <time>2012-09-06T09:03:19Z</time>
      </trkpt>
      <trkpt lat="42.55998" lon="1.99328">
        <ele>2057</ele>
        <time>2012-09-06T09:03:49Z</time>
      </trkpt>
      <trkpt lat="42.55998" lon="1.99313">
        <ele>2057</ele>
        <time>2012-09-06T09:04:20Z</time>
      </trkpt>
      <trkpt lat="42.55997" lon="1.9929">
        <ele>2057</ele>
        <time>2012-09-06T09:04:50Z</time>
      </trkpt>
      <trkpt lat="42.55995" lon="1.99268">
        <ele>2056</ele>
        <time>2012-09-06T09:05:20Z</time>
      </trkpt>
      <trkpt lat="42.55998" lon="1.9925">
        <ele>2057</ele>
        <time>2012-09-06T09:05:51Z</time>
      </trkpt>
      <trkpt lat="42.55997" lon="1.99237">
        <ele>2056</ele>
        <time>2012-09-06T09:06:21Z</time>
      </trkpt>
      <trkpt lat="42.55998" lon="1.9923">
        <ele>2057</ele>
        <time>2012-09-06T09:06:51Z</time>
      </trkpt>
      <trkpt lat="42.56003" lon="1.99196">
        <ele>2060</ele>
        <time>2012-09-06T09:07:22Z</time>
      </trkpt>
      <trkpt lat="42.56008" lon="1.99165">
        <ele>2064</ele>
        <time>2012-09-06T09:07:52Z</time>
      </trkpt>
      <trkpt lat="42.56013" lon="1.99143">
        <ele>2067</ele>
        <time>2012-09-06T09:08:22Z</time>
      </trkpt>
      <trkpt lat="42.56022" lon="1.99096">
        <ele>2073</ele>
        <time>2012-09-06T09:08:53Z</time>
      </trkpt>
      <trkpt lat="42.56028" lon="1.99078">
        <ele>2076</ele>
        <time>2012-09-06T09:09:23Z</time>
      </trkpt>
      <trkpt lat="42.56032" lon="1.9907">
        <ele>2077</ele>
        <time>2012-09-06T09:09:53Z</time>
      </trkpt>
      <trkpt lat="42.56051" lon="1.99051">
        <ele>2079</ele>
        <time>2012-09-06T09:10:24Z</time>
      </trkpt>
      <trkpt lat="42.56063" lon="1.9903">
        <ele>2081</ele>
        <time>2012-09-06T09:10:54Z</time>
      </trkpt>
      <trkpt lat="42.56069" lon="1.99001">
        <ele>2087</ele>
        <time>2012-09-06T09:11:24Z</time>
      </trkpt>
      <trkpt lat="42.56078" lon="1.98983">
        <ele>2090</ele>
        <time>2012-09-06T09:11:55Z</time>
      </trkpt>
      <trkpt lat="42.56081" lon="1.98982">
        <ele>2090</ele>
        <time>2012-09-06T09:12:25Z</time>
      </trkpt>
      <trkpt lat="42.56083" lon="1.98978">
        <ele>2091</ele>
        <time>2012-09-06T09:12:55Z</time>
      </trkpt>
      <trkpt lat="42.56088" lon="1.98969">
        <ele>2092</ele>
        <time>2012-09-06T09:13:26Z</time>
      </trkpt>
      <trkpt lat="42.561" lon="1.98955">
        <ele>2094</ele>
        <time>2012-09-06T09:13:56Z</time>
      </trkpt>
      <trkpt lat="42.5611" lon="1.98943">
        <ele>2095</ele>
        <time>2012-09-06T09:14:26Z</time>
      </trkpt>
      <trkpt lat="42.56117" lon="1.98929">
        <ele>2097</ele>
        <time>2012-09-06T09:14:57Z</time>
      </trkpt>
      <trkpt lat="42.56135" lon="1.98912">
        <ele>2097</ele>
        <time>2012-09-06T09:15:27Z</time>
      </trkpt>
      <trkpt lat="42.56146" lon="1.989">
        <ele>2097</ele>
        <time>2012-09-06T09:15:57Z</time>
      </trkpt>
      <trkpt lat="42.56155" lon="1.98885">
        <ele>2098</ele>
        <time>2012-09-06T09:16:27Z</time>
      </trkpt>
      <trkpt lat="42.56159" lon="1.98874">
        <ele>2099</ele>
        <time>2012-09-06T09:16:58Z</time>
      </trkpt>
      <trkpt lat="42.56162" lon="1.98865">
        <ele>2100</ele>
        <time>2012-09-06T09:17:28Z</time>
      </trkpt>
      <trkpt lat="42.56167" lon="1.98853">
        <ele>2101</ele>
        <time>2012-09-06T09:17:58Z</time>
      </trkpt>
      <trkpt lat="42.56173" lon="1.98843">
        <ele>2102</ele>
        <time>2012-09-06T09:18:29Z</time>
      </trkpt>
      <trkpt lat="42.56177" lon="1.98838">
        <ele>2102</ele>
        <time>2012-09-06T09:18:59Z</time>
      </trkpt>
      <trkpt lat="42.56187" lon="1.98828">
        <ele>2102</ele>
        <time>2012-09-06T09:19:29Z</time>
      </trkpt>
      <trkpt lat="42.56202" lon="1.98802">
        <ele>2105</ele>
        <time>2012-09-06T09:20:00Z</time>
      </trkpt>
      <trkpt lat="42.56207" lon="1.98787">
        <ele>2107</ele>
        <time>2012-09-06T09:20:30Z</time>
      </trkpt>
      <trkpt lat="42.5622" lon="1.98778">
        <ele>2108</ele>
        <time>2012-09-06T09:21:00Z</time>
      </trkpt>
      <trkpt lat="42.56228" lon="1.98776">
        <ele>2108</ele>
        <time>2012-09-06T09:21:31Z</time>
      </trkpt>
      <trkpt lat="42.56244" lon="1.98765">
        <ele>2109</ele>
        <time>2012-09-06T09:22:01Z</time>
      </trkpt>
      <trkpt lat="42.56253" lon="1.98759">
        <ele>2110</ele>
        <time>2012-09-06T09:22:31Z</time>
      </trkpt>
      <trkpt lat="42.56258" lon="1.98756">
        <ele>2110</ele>
        <time>2012-09-06T09:23:02Z</time>
      </trkpt>
      <trkpt lat="42.56264" lon="1.98745">
        <ele>2112</ele>
        <time>2012-09-06T09:23:32Z</time>
      </trkpt>
      <trkpt lat="42.56269" lon="1.98733">
        <ele>2114</ele>
        <time>2012-09-06T09:24:03Z</time>
      </trkpt>
      <trkpt lat="42.56279" lon="1.98723">
        <ele>2114</ele>
        <time>2012-09-06T09:24:33Z</time>
      </trkpt>
      <trkpt lat="42.563" lon="1.98714">
        <ele>2115</ele>
        <time>2012-09-06T09:25:03Z</time>
      </trkpt>
      <trkpt lat="42.56314" lon="1.98702">
        <ele>2116</ele>
        <time>2012-09-06T09:25:34Z</time>
      </trkpt>
      <trkpt lat="42.5632" lon="1.98694">
        <ele>2117</ele>
        <time>2012-09-06T09:26:04Z</time>
      </trkpt>
      <trkpt lat="42.56325" lon="1.98683">
        <ele>2118</ele>
        <time>2012-09-06T09:26:34Z</time>
      </trkpt>
      <trkpt lat="42.56327" lon="1.98675">
        <ele>2119</ele>
        <time>2012-09-06T09:27:35Z</time>
      </trkpt>
      <trkpt lat="42.5633" lon="1.98672">
        <ele>2120</ele>
        <time>2012-09-06T09:28:05Z</time>
      </trkpt>
      <trkpt lat="42.56333" lon="1.98667">
        <ele>2121</ele>
        <time>2012-09-06T09:28:36Z</time>
      </trkpt>
      <trkpt lat="42.56338" lon="1.98656">
        <ele>2123</ele>
        <time>2012-09-06T09:29:06Z</time>
      </trkpt>
      <trkpt lat="42.56345" lon="1.98635">
        <ele>2126</ele>
        <time>2012-09-06T09:29:36Z</time>
      </trkpt>
      <trkpt lat="42.56357" lon="1.98622">
        <ele>2128</ele>
        <time>2012-09-06T09:30:06Z</time>
      </trkpt>
      <trkpt lat="42.5636" lon="1.98613">
        <ele>2129</ele>
        <time>2012-09-06T09:30:37Z</time>
      </trkpt>
      <trkpt lat="42.56368" lon="1.98605">
        <ele>2131</ele>
        <time>2012-09-06T09:31:07Z</time>
      </trkpt>
      <trkpt lat="42.56373" lon="1.98603">
        <ele>2131</ele>
        <time>2012-09-06T09:31:37Z</time>
      </trkpt>
      <trkpt lat="42.56383" lon="1.9859">
        <ele>2133</ele>
        <time>2012-09-06T09:32:08Z</time>
      </trkpt>
      <trkpt lat="42.56403" lon="1.98575">
        <ele>2135</ele>
        <time>2012-09-06T09:32:38Z</time>
      </trkpt>
      <trkpt lat="42.56423" lon="1.98547">
        <ele>2138</ele>
        <time>2012-09-06T09:33:08Z</time>
      </trkpt>
      <trkpt lat="42.56431" lon="1.98516">
        <ele>2141</ele>
        <time>2012-09-06T09:33:39Z</time>
      </trkpt>
      <trkpt lat="42.5643" lon="1.98472">
        <ele>2145</ele>
        <time>2012-09-06T09:34:09Z</time>
      </trkpt>
      <trkpt lat="42.56425" lon="1.98435">
        <ele>2147</ele>
        <time>2012-09-06T09:34:39Z</time>
      </trkpt>
      <trkpt lat="42.56423" lon="1.98402">
        <ele>2150</ele>
        <time>2012-09-06T09:35:10Z</time>
      </trkpt>
      <trkpt lat="42.56425" lon="1.98363">
        <ele>2153</ele>
        <time>2012-09-06T09:35:40Z</time>
      </trkpt>
      <trkpt lat="42.56426" lon="1.98356">
        <ele>2154</ele>
        <time>2012-09-06T09:36:10Z</time>
      </trkpt>
      <trkpt lat="42.56435" lon="1.98333">
        <ele>2155</ele>
        <time>2012-09-06T09:36:41Z</time>
      </trkpt>
      <trkpt lat="42.56448" lon="1.98315">
        <ele>2155</ele>
        <time>2012-09-06T09:37:11Z</time>
      </trkpt>
      <trkpt lat="42.56455" lon="1.98297">
        <ele>2156</ele>
        <time>2012-09-06T09:37:41Z</time>
      </trkpt>
      <trkpt lat="42.56473" lon="1.9828">
        <ele>2157</ele>
        <time>2012-09-06T09:38:12Z</time>
      </trkpt>
      <trkpt lat="42.5649" lon="1.98257">
        <ele>2157</ele>
        <time>2012-09-06T09:38:42Z</time>
      </trkpt>
      <trkpt lat="42.56498" lon="1.98248">
        <ele>2158</ele>
        <time>2012-09-06T09:39:12Z</time>
      </trkpt>
      <trkpt lat="42.56512" lon="1.98239">
        <ele>2157</ele>
        <time>2012-09-06T09:39:43Z</time>
      </trkpt>
      <trkpt lat="42.56523" lon="1.98228">
        <ele>2157</ele>
        <time>2012-09-06T09:40:13Z</time>
      </trkpt>
      <trkpt lat="42.56534" lon="1.98213">
        <ele>2158</ele>
        <time>2012-09-06T09:40:44Z</time>
      </trkpt>
      <trkpt lat="42.56544" lon="1.98188">
        <ele>2162</ele>
        <time>2012-09-06T09:41:14Z</time>
      </trkpt>
      <trkpt lat="42.56542" lon="1.98164">
        <ele>2164</ele>
        <time>2012-09-06T09:41:44Z</time>
      </trkpt>
      <trkpt lat="42.56527" lon="1.9812">
        <ele>2169</ele>
        <time>2012-09-06T09:42:15Z</time>
      </trkpt>
      <trkpt lat="42.56515" lon="1.98103">
        <ele>2171</ele>
        <time>2012-09-06T09:42:45Z</time>
      </trkpt>
      <trkpt lat="42.56512" lon="1.98089">
        <ele>2172</ele>
        <time>2012-09-06T09:43:15Z</time>
      </trkpt>
      <trkpt lat="42.565" lon="1.98055">
        <ele>2174</ele>
        <time>2012-09-06T09:43:46Z</time>
      </trkpt>
      <trkpt lat="42.56501" lon="1.98024">
        <ele>2175</ele>
        <time>2012-09-06T09:44:16Z</time>
      </trkpt>
      <trkpt lat="42.56493" lon="1.97988">
        <ele>2176</ele>
        <time>2012-09-06T09:44:46Z</time>
      </trkpt>
      <trkpt lat="42.56482" lon="1.97965">
        <ele>2176</ele>
        <time>2012-09-06T09:45:16Z</time>
      </trkpt>
      <trkpt lat="42.56473" lon="1.9794">
        <ele>2175</ele>
        <time>2012-09-06T09:45:47Z</time>
      </trkpt>
      <trkpt lat="42.56462" lon="1.97921">
        <ele>2174</ele>
        <time>2012-09-06T09:46:17Z</time>
      </trkpt>
      <trkpt lat="42.56463" lon="1.97887">
        <ele>2173</ele>
        <time>2012-09-06T09:46:47Z</time>
      </trkpt>
      <trkpt lat="42.56463" lon="1.97872">
        <ele>2172</ele>
        <time>2012-09-06T09:47:18Z</time>
      </trkpt>
      <trkpt lat="42.56459" lon="1.97854">
        <ele>2171</ele>
        <time>2012-09-06T09:47:48Z</time>
      </trkpt>
      <trkpt lat="42.56462" lon="1.97829">
        <ele>2170</ele>
        <time>2012-09-06T09:48:18Z</time>
      </trkpt>
      <trkpt lat="42.56461" lon="1.97804">
        <ele>2168</ele>
        <time>2012-09-06T09:48:49Z</time>
      </trkpt>
      <trkpt lat="42.56457" lon="1.97781">
        <ele>2166</ele>
        <time>2012-09-06T09:49:19Z</time>
      </trkpt>
      <trkpt lat="42.56458" lon="1.97762">
        <ele>2164</ele>
        <time>2012-09-06T09:49:49Z</time>
      </trkpt>
      <trkpt lat="42.56451" lon="1.9774">
        <ele>2162</ele>
        <time>2012-09-06T09:50:19Z</time>
      </trkpt>
      <trkpt lat="42.56446" lon="1.97715">
        <ele>2160</ele>
        <time>2012-09-06T09:50:50Z</time>
      </trkpt>
      <trkpt lat="42.5645" lon="1.97698">
        <ele>2160</ele>
        <time>2012-09-06T09:51:20Z</time>
      </trkpt>
      <trkpt lat="42.56457" lon="1.97678">
        <ele>2160</ele>
        <time>2012-09-06T09:51:50Z</time>
      </trkpt>
      <trkpt lat="42.56461" lon="1.97654">
        <ele>2159</ele>
        <time>2012-09-06T09:52:21Z</time>
      </trkpt>
      <trkpt lat="42.56467" lon="1.97637">
        <ele>2159</ele>
        <time>2012-09-06T09:52:51Z</time>
      </trkpt>
      <trkpt lat="42.56481" lon="1.97619">
        <ele>2160</ele>
        <time>2012-09-06T09:53:22Z</time>
      </trkpt>
      <trkpt lat="42.56483" lon="1.97594">
        <ele>2160</ele>
        <time>2012-09-06T09:53:52Z</time>
      </trkpt>
      <trkpt lat="42.56487" lon="1.97576">
        <ele>2160</ele>
        <time>2012-09-06T09:54:22Z</time>
      </trkpt>
      <trkpt lat="42.56498" lon="1.97565">
        <ele>2162</ele>
        <time>2012-09-06T09:54:53Z</time>
      </trkpt>
      <trkpt lat="42.56503" lon="1.97553">
        <ele>2163</ele>
        <time>2012-09-06T09:55:23Z</time>
      </trkpt>
      <trkpt lat="42.56508" lon="1.97532">
        <ele>2164</ele>
        <time>2012-09-06T09:56:24Z</time>
      </trkpt>
      <trkpt lat="42.56513" lon="1.97528">
        <ele>2164</ele>
        <time>2012-09-06T09:56:54Z</time>
      </trkpt>
      <trkpt lat="42.56523" lon="1.97492">
        <ele>2169</ele>
        <time>2012-09-06T09:57:24Z</time>
      </trkpt>
      <trkpt lat="42.56517" lon="1.97468">
        <ele>2172</ele>
        <time>2012-09-06T09:57:55Z</time>
      </trkpt>
      <trkpt lat="42.56509" lon="1.97459">
        <ele>2173</ele>
        <time>2012-09-06T09:58:25Z</time>
      </trkpt>
      <trkpt lat="42.5651" lon="1.97452">
        <ele>2174</ele>
        <time>2012-09-06T09:58:55Z</time>
      </trkpt>
      <trkpt lat="42.56518" lon="1.97432">
        <ele>2177</ele>
        <time>2012-09-06T09:59:26Z</time>
      </trkpt>
      <trkpt lat="42.56539" lon="1.97424">
        <ele>2178</ele>
        <time>2012-09-06T09:59:56Z</time>
      </trkpt>
      <trkpt lat="42.56562" lon="1.97414">
        <ele>2179</ele>
        <time>2012-09-06T10:00:26Z</time>
      </trkpt>
      <trkpt lat="42.56588" lon="1.97398">
        <ele>2179</ele>
        <time>2012-09-06T10:00:57Z</time>
      </trkpt>
      <trkpt lat="42.56615" lon="1.97382">
        <ele>2180</ele>
        <time>2012-09-06T10:01:27Z</time>
      </trkpt>
      <trkpt lat="42.56642" lon="1.97367">
        <ele>2181</ele>
        <time>2012-09-06T10:01:57Z</time>
      </trkpt>
      <trkpt lat="42.56663" lon="1.9736">
        <ele>2182</ele>
        <time>2012-09-06T10:02:28Z</time>
      </trkpt>
      <trkpt lat="42.56682" lon="1.97355">
        <ele>2183</ele>
        <time>2012-09-06T10:02:58Z</time>
      </trkpt>
      <trkpt lat="42.567" lon="1.97343">
        <ele>2185</ele>
        <time>2012-09-06T10:03:28Z</time>
      </trkpt>
      <trkpt lat="42.56705" lon="1.9734">
        <ele>2185</ele>
        <time>2012-09-06T10:03:59Z</time>
      </trkpt>
      <trkpt lat="42.56715" lon="1.97327">
        <ele>2187</ele>
        <time>2012-09-06T10:04:29Z</time>
      </trkpt>
      <trkpt lat="42.5673" lon="1.97315">
        <ele>2189</ele>
        <time>2012-09-06T10:04:59Z</time>
      </trkpt>
      <trkpt lat="42.56748" lon="1.97293">
        <ele>2191</ele>
        <time>2012-09-06T10:05:30Z</time>
      </trkpt>
      <trkpt lat="42.56768" lon="1.97278">
        <ele>2193</ele>
        <time>2012-09-06T10:06:00Z</time>
      </trkpt>
      <trkpt lat="42.56783" lon="1.97253">
        <ele>2197</ele>
        <time>2012-09-06T10:06:30Z</time>
      </trkpt>
      <trkpt lat="42.56802" lon="1.97235">
        <ele>2200</ele>
        <time>2012-09-06T10:07:01Z</time>
      </trkpt>
      <trkpt lat="42.56822" lon="1.9722">
        <ele>2203</ele>
        <time>2012-09-06T10:07:31Z</time>
      </trkpt>
      <trkpt lat="42.56833" lon="1.97207">
        <ele>2205</ele>
        <time>2012-09-06T10:08:01Z</time>
      </trkpt>
      <trkpt lat="42.5685" lon="1.97197">
        <ele>2207</ele>
        <time>2012-09-06T10:08:32Z</time>
      </trkpt>
      <trkpt lat="42.56868" lon="1.9718">
        <ele>2210</ele>
        <time>2012-09-06T10:09:02Z</time>
      </trkpt>
      <trkpt lat="42.56888" lon="1.97167">
        <ele>2212</ele>
        <time>2012-09-06T10:09:32Z</time>
      </trkpt>
      <trkpt lat="42.56908" lon="1.97151">
        <ele>2216</ele>
        <time>2012-09-06T10:10:03Z</time>
      </trkpt>
      <trkpt lat="42.56915" lon="1.97145">
        <ele>2217</ele>
        <time>2012-09-06T10:10:33Z</time>
      </trkpt>
      <trkpt lat="42.56927" lon="1.97132">
        <ele>2219</ele>
        <time>2012-09-06T10:11:34Z</time>
      </trkpt>
      <trkpt lat="42.56948" lon="1.97118">
        <ele>2221</ele>
        <time>2012-09-06T10:12:04Z</time>
      </trkpt>
      <trkpt lat="42.56972" lon="1.97107">
        <ele>2224</ele>
        <time>2012-09-06T10:12:34Z</time>
      </trkpt>
      <trkpt lat="42.56995" lon="1.97098">
        <ele>2226</ele>
        <time>2012-09-06T10:13:05Z</time>
      </trkpt>
      <trkpt lat="42.57022" lon="1.97091">
        <ele>2230</ele>
        <time>2012-09-06T10:13:35Z</time>
      </trkpt>
      <trkpt lat="42.57047" lon="1.97084">
        <ele>2232</ele>
        <time>2012-09-06T10:14:05Z</time>
      </trkpt>
      <trkpt lat="42.57075" lon="1.97073">
        <ele>2235</ele>
        <time>2012-09-06T10:14:36Z</time>
      </trkpt>
      <trkpt lat="42.57101" lon="1.97062">
        <ele>2236</ele>
        <time>2012-09-06T10:15:06Z</time>
      </trkpt>
      <trkpt lat="42.57128" lon="1.97052">
        <ele>2236</ele>
        <time>2012-09-06T10:15:36Z</time>
      </trkpt>
      <trkpt lat="42.57148" lon="1.97035">
        <ele>2237</ele>
        <time>2012-09-06T10:16:07Z</time>
      </trkpt>
      <trkpt lat="42.57173" lon="1.97007">
        <ele>2236</ele>
        <time>2012-09-06T10:16:37Z</time>
      </trkpt>
      <trkpt lat="42.57193" lon="1.96983">
        <ele>2235</ele>
        <time>2012-09-06T10:17:07Z</time>
      </trkpt>
      <trkpt lat="42.5722" lon="1.96957">
        <ele>2229</ele>
        <time>2012-09-06T10:17:38Z</time>
      </trkpt>
      <trkpt lat="42.5724" lon="1.96937">
        <ele>2225</ele>
        <time>2012-09-06T10:18:08Z</time>
      </trkpt>
      <trkpt lat="42.57266" lon="1.96924">
        <ele>2222</ele>
        <time>2012-09-06T10:18:38Z</time>
      </trkpt>
      <trkpt lat="42.5729" lon="1.96902">
        <ele>2220</ele>
        <time>2012-09-06T10:19:09Z</time>
      </trkpt>
      <trkpt lat="42.57302" lon="1.96877">
        <ele>2218</ele>
        <time>2012-09-06T10:19:39Z</time>
      </trkpt>
      <trkpt lat="42.5731" lon="1.96853">
        <ele>2217</ele>
        <time>2012-09-06T10:20:09Z</time>
      </trkpt>
      <trkpt lat="42.57312" lon="1.96837">
        <ele>2217</ele>
        <time>2012-09-06T10:20:40Z</time>
      </trkpt>
      <trkpt lat="42.57314" lon="1.96823">
        <ele>2217</ele>
        <time>2012-09-06T10:21:10Z</time>
      </trkpt>
      <trkpt lat="42.57313" lon="1.96791">
        <ele>2217</ele>
        <time>2012-09-06T10:21:40Z</time>
      </trkpt>
      <trkpt lat="42.57315" lon="1.96757">
        <ele>2220</ele>
        <time>2012-09-06T10:22:10Z</time>
      </trkpt>
      <trkpt lat="42.57315" lon="1.9673">
        <ele>2222</ele>
        <time>2012-09-06T10:22:41Z</time>
      </trkpt>
      <trkpt lat="42.57313" lon="1.96691">
        <ele>2226</ele>
        <time>2012-09-06T10:23:11Z</time>
      </trkpt>
      <trkpt lat="42.57298" lon="1.96665">
        <ele>2228</ele>
        <time>2012-09-06T10:23:41Z</time>
      </trkpt>
      <trkpt lat="42.5729" lon="1.96648">
        <ele>2231</ele>
        <time>2012-09-06T10:24:12Z</time>
      </trkpt>
      <trkpt lat="42.57272" lon="1.96632">
        <ele>2233</ele>
        <time>2012-09-06T10:24:42Z</time>
      </trkpt>
      <trkpt lat="42.57267" lon="1.96619">
        <ele>2236</ele>
        <time>2012-09-06T10:25:12Z</time>
      </trkpt>
      <trkpt lat="42.57268" lon="1.96605">
        <ele>2239</ele>
        <time>2012-09-06T10:25:42Z</time>
      </trkpt>
      <trkpt lat="42.5727" lon="1.96597">
        <ele>2241</ele>
        <time>2012-09-06T10:26:13Z</time>
      </trkpt>
      <trkpt lat="42.57273" lon="1.96577">
        <ele>2245</ele>
        <time>2012-09-06T10:26:43Z</time>
      </trkpt>
      <trkpt lat="42.57273" lon="1.96562">
        <ele>2248</ele>
        <time>2012-09-06T10:27:44Z</time>
      </trkpt>
      <trkpt lat="42.57263" lon="1.96536">
        <ele>2250</ele>
        <time>2012-09-06T10:28:14Z</time>
      </trkpt>
      <trkpt lat="42.57255" lon="1.96517">
        <ele>2251</ele>
        <time>2012-09-06T10:28:44Z</time>
      </trkpt>
      <trkpt lat="42.57253" lon="1.96501">
        <ele>2253</ele>
        <time>2012-09-06T10:29:15Z</time>
      </trkpt>
      <trkpt lat="42.57254" lon="1.96466">
        <ele>2257</ele>
        <time>2012-09-06T10:29:45Z</time>
      </trkpt>
      <trkpt lat="42.57252" lon="1.96455">
        <ele>2258</ele>
        <time>2012-09-06T10:30:15Z</time>
      </trkpt>
      <trkpt lat="42.57248" lon="1.96432">
        <ele>2259</ele>
        <time>2012-09-06T10:30:46Z</time>
      </trkpt>
      <trkpt lat="42.57244" lon="1.96416">
        <ele>2260</ele>
        <time>2012-09-06T10:31:16Z</time>
      </trkpt>
      <trkpt lat="42.5724" lon="1.96405">
        <ele>2260</ele>
        <time>2012-09-06T10:31:46Z</time>
      </trkpt>
      <trkpt lat="42.57225" lon="1.96407">
        <ele>2257</ele>
        <time>2012-09-06T10:32:17Z</time>
      </trkpt>
      <trkpt lat="42.57227" lon="1.96398">
        <ele>2259</ele>
        <time>2012-09-06T10:32:47Z</time>
      </trkpt>
      <trkpt lat="42.57237" lon="1.96393">
        <ele>2261</ele>
        <time>2012-09-06T10:33:18Z</time>
      </trkpt>
      <trkpt lat="42.57238" lon="1.96388">
        <ele>2262</ele>
        <time>2012-09-06T10:33:48Z</time>
      </trkpt>
      <trkpt lat="42.57238" lon="1.96384">
        <ele>2263</ele>
        <time>2012-09-06T10:34:18Z</time>
      </trkpt>
      <trkpt lat="42.57237" lon="1.9637">
        <ele>2264</ele>
        <time>2012-09-06T10:35:19Z</time>
      </trkpt>
      <trkpt lat="42.57236" lon="1.96348">
        <ele>2267</ele>
        <time>2012-09-06T10:35:49Z</time>
      </trkpt>
      <trkpt lat="42.57228" lon="1.96304">
        <ele>2272</ele>
        <time>2012-09-06T10:36:20Z</time>
      </trkpt>
      <trkpt lat="42.57222" lon="1.96267">
        <ele>2275</ele>
        <time>2012-09-06T10:36:50Z</time>
      </trkpt>
      <trkpt lat="42.57216" lon="1.96238">
        <ele>2276</ele>
        <time>2012-09-06T10:37:20Z</time>
      </trkpt>
      <trkpt lat="42.57212" lon="1.96227">
        <ele>2277</ele>
        <time>2012-09-06T10:37:51Z</time>
      </trkpt>
      <trkpt lat="42.57205" lon="1.96203">
        <ele>2278</ele>
        <time>2012-09-06T10:38:21Z</time>
      </trkpt>
      <trkpt lat="42.57202" lon="1.96183">
        <ele>2280</ele>
        <time>2012-09-06T10:38:51Z</time>
      </trkpt>
      <trkpt lat="42.57206" lon="1.96167">
        <ele>2283</ele>
        <time>2012-09-06T10:39:21Z</time>
      </trkpt>
      <trkpt lat="42.5721" lon="1.96145">
        <ele>2288</ele>
        <time>2012-09-06T10:40:22Z</time>
      </trkpt>
      <trkpt lat="42.57215" lon="1.96125">
        <ele>2293</ele>
        <time>2012-09-06T10:40:52Z</time>
      </trkpt>
      <trkpt lat="42.57219" lon="1.96108">
        <ele>2296</ele>
        <time>2012-09-06T10:41:23Z</time>
      </trkpt>
      <trkpt lat="42.57217" lon="1.96095">
        <ele>2297</ele>
        <time>2012-09-06T10:41:53Z</time>
      </trkpt>
      <trkpt lat="42.57217" lon="1.96088">
        <ele>2297</ele>
        <time>2012-09-06T10:42:23Z</time>
      </trkpt>
      <trkpt lat="42.57217" lon="1.96073">
        <ele>2299</ele>
        <time>2012-09-06T10:42:54Z</time>
      </trkpt>
      <trkpt lat="42.57217" lon="1.96054">
        <ele>2301</ele>
        <time>2012-09-06T10:43:24Z</time>
      </trkpt>
      <trkpt lat="42.57219" lon="1.96038">
        <ele>2302</ele>
        <time>2012-09-06T10:43:54Z</time>
      </trkpt>
      <trkpt lat="42.57222" lon="1.96023">
        <ele>2304</ele>
        <time>2012-09-06T10:44:25Z</time>
      </trkpt>
      <trkpt lat="42.57236" lon="1.95995">
        <ele>2310</ele>
        <time>2012-09-06T10:44:55Z</time>
      </trkpt>
      <trkpt lat="42.57244" lon="1.95965">
        <ele>2316</ele>
        <time>2012-09-06T10:45:25Z</time>
      </trkpt>
      <trkpt lat="42.57245" lon="1.95943">
        <ele>2319</ele>
        <time>2012-09-06T10:45:56Z</time>
      </trkpt>
      <trkpt lat="42.57247" lon="1.95924">
        <ele>2322</ele>
        <time>2012-09-06T10:46:26Z</time>
      </trkpt>
      <trkpt lat="42.57249" lon="1.9591">
        <ele>2325</ele>
        <time>2012-09-06T10:46:56Z</time>
      </trkpt>
      <trkpt lat="42.57251" lon="1.95899">
        <ele>2327</ele>
        <time>2012-09-06T10:47:27Z</time>
      </trkpt>
      <trkpt lat="42.57252" lon="1.95889">
        <ele>2329</ele>
        <time>2012-09-06T10:47:57Z</time>
      </trkpt>
      <trkpt lat="42.57251" lon="1.95871">
        <ele>2332</ele>
        <time>2012-09-06T10:48:27Z</time>
      </trkpt>
      <trkpt lat="42.57252" lon="1.95853">
        <ele>2335</ele>
        <time>2012-09-06T10:48:58Z</time>
      </trkpt>
      <trkpt lat="42.57251" lon="1.95826">
        <ele>2339</ele>
        <time>2012-09-06T10:49:28Z</time>
      </trkpt>
      <trkpt lat="42.5725" lon="1.95806">
        <ele>2341</ele>
        <time>2012-09-06T10:49:58Z</time>
      </trkpt>
      <trkpt lat="42.57241" lon="1.95786">
        <ele>2342</ele>
        <time>2012-09-06T10:50:29Z</time>
      </trkpt>
      <trkpt lat="42.57232" lon="1.95778">
        <ele>2342</ele>
        <time>2012-09-06T10:50:59Z</time>
      </trkpt>
      <trkpt lat="42.57219" lon="1.95764">
        <ele>2341</ele>
        <time>2012-09-06T10:51:29Z</time>
      </trkpt>
      <trkpt lat="42.57207" lon="1.95749">
        <ele>2343</ele>
        <time>2012-09-06T10:51:59Z</time>
      </trkpt>
      <trkpt lat="42.57191" lon="1.9573">
        <ele>2344</ele>
        <time>2012-09-06T10:52:30Z</time>
      </trkpt>
      <trkpt lat="42.57179" lon="1.95719">
        <ele>2346</ele>
        <time>2012-09-06T10:53:00Z</time>
      </trkpt>
      <trkpt lat="42.57172" lon="1.95709">
        <ele>2347</ele>
        <time>2012-09-06T10:53:30Z</time>
      </trkpt>
      <trkpt lat="42.57165" lon="1.95695">
        <ele>2348</ele>
        <time>2012-09-06T10:54:01Z</time>
      </trkpt>
      <trkpt lat="42.57152" lon="1.95667">
        <ele>2351</ele>
        <time>2012-09-06T10:54:31Z</time>
      </trkpt>
      <trkpt lat="42.57145" lon="1.9564">
        <ele>2354</ele>
        <time>2012-09-06T10:55:01Z</time>
      </trkpt>
      <trkpt lat="42.57143" lon="1.95613">
        <ele>2355</ele>
        <time>2012-09-06T10:55:32Z</time>
      </trkpt>
      <trkpt lat="42.57144" lon="1.95587">
        <ele>2356</ele>
        <time>2012-09-06T10:56:02Z</time>
      </trkpt>
      <trkpt lat="42.57148" lon="1.9556">
        <ele>2357</ele>
        <time>2012-09-06T10:56:32Z</time>
      </trkpt>
      <trkpt lat="42.5715" lon="1.9555">
        <ele>2357</ele>
        <time>2012-09-06T10:57:03Z</time>
      </trkpt>
      <trkpt lat="42.57157" lon="1.95522">
        <ele>2356</ele>
        <time>2012-09-06T10:57:33Z</time>
      </trkpt>
      <trkpt lat="42.57156" lon="1.95494">
        <ele>2357</ele>
        <time>2012-09-06T10:58:03Z</time>
      </trkpt>
      <trkpt lat="42.57157" lon="1.9546">
        <ele>2358</ele>
        <time>2012-09-06T10:58:34Z</time>
      </trkpt>
      <trkpt lat="42.5716" lon="1.95433">
        <ele>2358</ele>
        <time>2012-09-06T10:59:04Z</time>
      </trkpt>
      <trkpt lat="42.57164" lon="1.95397">
        <ele>2359</ele>
        <time>2012-09-06T10:59:34Z</time>
      </trkpt>
      <trkpt lat="42.57162" lon="1.95358">
        <ele>2360</ele>
        <time>2012-09-06T11:00:05Z</time>
      </trkpt>
      <trkpt lat="42.5716" lon="1.95317">
        <ele>2361</ele>
        <time>2012-09-06T11:00:35Z</time>
      </trkpt>
      <trkpt lat="42.57161" lon="1.95282">
        <ele>2360</ele>
        <time>2012-09-06T11:01:05Z</time>
      </trkpt>
      <trkpt lat="42.5716" lon="1.95258">
        <ele>2359</ele>
        <time>2012-09-06T11:01:36Z</time>
      </trkpt>
      <trkpt lat="42.57155" lon="1.95228">
        <ele>2358</ele>
        <time>2012-09-06T11:02:06Z</time>
      </trkpt>
      <trkpt lat="42.57148" lon="1.95194">
        <ele>2358</ele>
        <time>2012-09-06T11:02:36Z</time>
      </trkpt>
      <trkpt lat="42.57148" lon="1.95172">
        <ele>2360</ele>
        <time>2012-09-06T11:03:06Z</time>
      </trkpt>
      <trkpt lat="42.57154" lon="1.95147">
        <ele>2360</ele>
        <time>2012-09-06T11:03:37Z</time>
      </trkpt>
      <trkpt lat="42.57156" lon="1.95127">
        <ele>2362</ele>
        <time>2012-09-06T11:04:07Z</time>
      </trkpt>
      <trkpt lat="42.57156" lon="1.95105">
        <ele>2364</ele>
        <time>2012-09-06T11:04:37Z</time>
      </trkpt>
      <trkpt lat="42.57161" lon="1.9508">
        <ele>2366</ele>
        <time>2012-09-06T11:05:08Z</time>
      </trkpt>
      <trkpt lat="42.57168" lon="1.95053">
        <ele>2369</ele>
        <time>2012-09-06T11:05:38Z</time>
      </trkpt>
      <trkpt lat="42.57175" lon="1.95027">
        <ele>2372</ele>
        <time>2012-09-06T11:06:08Z</time>
      </trkpt>
      <trkpt lat="42.57181" lon="1.95005">
        <ele>2374</ele>
        <time>2012-09-06T11:06:39Z</time>
      </trkpt>
      <trkpt lat="42.5718" lon="1.94981">
        <ele>2378</ele>
        <time>2012-09-06T11:07:09Z</time>
      </trkpt>
      <trkpt lat="42.57175" lon="1.94968">
        <ele>2381</ele>
        <time>2012-09-06T11:07:39Z</time>
      </trkpt>
      <trkpt lat="42.57171" lon="1.9496">
        <ele>2383</ele>
        <time>2012-09-06T11:08:10Z</time>
      </trkpt>
      <trkpt lat="42.57168" lon="1.94955">
        <ele>2384</ele>
        <time>2012-09-06T11:09:10Z</time>
      </trkpt>
      <trkpt lat="42.57168" lon="1.94948">
        <ele>2385</ele>
        <time>2012-09-06T11:09:41Z</time>
      </trkpt>
      <trkpt lat="42.57167" lon="1.94927">
        <ele>2387</ele>
        <time>2012-09-06T11:10:11Z</time>
      </trkpt>
      <trkpt lat="42.57169" lon="1.94913">
        <ele>2389</ele>
        <time>2012-09-06T11:10:41Z</time>
      </trkpt>
      <trkpt lat="42.5716" lon="1.94899">
        <ele>2393</ele>
        <time>2012-09-06T11:11:12Z</time>
      </trkpt>
      <trkpt lat="42.57145" lon="1.94888">
        <ele>2400</ele>
        <time>2012-09-06T11:11:42Z</time>
      </trkpt>
      <trkpt lat="42.57133" lon="1.94877">
        <ele>2405</ele>
        <time>2012-09-06T11:12:12Z</time>
      </trkpt>
      <trkpt lat="42.57127" lon="1.94867">
        <ele>2407</ele>
        <time>2012-09-06T11:12:43Z</time>
      </trkpt>
      <trkpt lat="42.57127" lon="1.94842">
        <ele>2409</ele>
        <time>2012-09-06T11:13:13Z</time>
      </trkpt>
      <trkpt lat="42.57127" lon="1.9482">
        <ele>2411</ele>
        <time>2012-09-06T11:13:43Z</time>
      </trkpt>
      <trkpt lat="42.57127" lon="1.94798">
        <ele>2412</ele>
        <time>2012-09-06T11:14:14Z</time>
      </trkpt>
      <trkpt lat="42.57128" lon="1.94773">
        <ele>2414</ele>
        <time>2012-09-06T11:14:44Z</time>
      </trkpt>
      <trkpt lat="42.57116" lon="1.94746">
        <ele>2419</ele>
        <time>2012-09-06T11:15:14Z</time>
      </trkpt>
      <trkpt lat="42.57104" lon="1.94728">
        <ele>2422</ele>
        <time>2012-09-06T11:15:44Z</time>
      </trkpt>
      <trkpt lat="42.57097" lon="1.94715">
        <ele>2425</ele>
        <time>2012-09-06T11:16:15Z</time>
      </trkpt>
      <trkpt lat="42.57097" lon="1.947">
        <ele>2426</ele>
        <time>2012-09-06T11:16:45Z</time>
      </trkpt>
      <trkpt lat="42.57097" lon="1.94681">
        <ele>2427</ele>
        <time>2012-09-06T11:17:15Z</time>
      </trkpt>
      <trkpt lat="42.57096" lon="1.94662">
        <ele>2429</ele>
        <time>2012-09-06T11:17:46Z</time>
      </trkpt>
      <trkpt lat="42.57097" lon="1.94657">
        <ele>2429</ele>
        <time>2012-09-06T11:18:46Z</time>
      </trkpt>
      <trkpt lat="42.57099" lon="1.9465">
        <ele>2429</ele>
        <time>2012-09-06T11:19:17Z</time>
      </trkpt>
      <trkpt lat="42.57096" lon="1.94628">
        <ele>2430</ele>
        <time>2012-09-06T11:19:47Z</time>
      </trkpt>
      <trkpt lat="42.57091" lon="1.94595">
        <ele>2432</ele>
        <time>2012-09-06T11:20:17Z</time>
      </trkpt>
      <trkpt lat="42.57091" lon="1.94572">
        <ele>2432</ele>
        <time>2012-09-06T11:20:48Z</time>
      </trkpt>
      <trkpt lat="42.57086" lon="1.94557">
        <ele>2434</ele>
        <time>2012-09-06T11:21:18Z</time>
      </trkpt>
      <trkpt lat="42.57071" lon="1.94543">
        <ele>2440</ele>
        <time>2012-09-06T11:21:48Z</time>
      </trkpt>
      <trkpt lat="42.57062" lon="1.94537">
        <ele>2446</ele>
        <time>2012-09-06T11:22:19Z</time>
      </trkpt>
      <trkpt lat="42.57055" lon="1.94531">
        <ele>2450</ele>
        <time>2012-09-06T11:22:49Z</time>
      </trkpt>
      <trkpt lat="42.57048" lon="1.94517">
        <ele>2455</ele>
        <time>2012-09-06T11:23:19Z</time>
      </trkpt>
      <trkpt lat="42.57046" lon="1.94505">
        <ele>2457</ele>
        <time>2012-09-06T11:23:50Z</time>
      </trkpt>
      <trkpt lat="42.57042" lon="1.94493">
        <ele>2459</ele>
        <time>2012-09-06T11:24:20Z</time>
      </trkpt>
      <trkpt lat="42.57037" lon="1.94482">
        <ele>2463</ele>
        <time>2012-09-06T11:24:50Z</time>
      </trkpt>
      <trkpt lat="42.57033" lon="1.9447">
        <ele>2466</ele>
        <time>2012-09-06T11:25:21Z</time>
      </trkpt>
      <trkpt lat="42.5703" lon="1.94461">
        <ele>2470</ele>
        <time>2012-09-06T11:25:51Z</time>
      </trkpt>
      <trkpt lat="42.57026" lon="1.94454">
        <ele>2473</ele>
        <time>2012-09-06T11:26:21Z</time>
      </trkpt>
      <trkpt lat="42.57021" lon="1.94445">
        <ele>2477</ele>
        <time>2012-09-06T11:26:52Z</time>
      </trkpt>
      <trkpt lat="42.57018" lon="1.94439">
        <ele>2480</ele>
        <time>2012-09-06T11:27:22Z</time>
      </trkpt>
      <trkpt lat="42.57017" lon="1.94432">
        <ele>2481</ele>
        <time>2012-09-06T11:27:52Z</time>
      </trkpt>
      <trkpt lat="42.57014" lon="1.94422">
        <ele>2484</ele>
        <time>2012-09-06T11:29:54Z</time>
      </trkpt>
      <trkpt lat="42.57008" lon="1.94408">
        <ele>2490</ele>
        <time>2012-09-06T11:30:24Z</time>
      </trkpt>
      <trkpt lat="42.57006" lon="1.94395">
        <ele>2492</ele>
        <time>2012-09-06T11:30:55Z</time>
      </trkpt>
      <trkpt lat="42.57006" lon="1.94382">
        <ele>2494</ele>
        <time>2012-09-06T11:31:25Z</time>
      </trkpt>
      <trkpt lat="42.57004" lon="1.94368">
        <ele>2496</ele>
        <time>2012-09-06T11:31:55Z</time>
      </trkpt>
      <trkpt lat="42.57002" lon="1.94352">
        <ele>2501</ele>
        <time>2012-09-06T11:32:26Z</time>
      </trkpt>
      <trkpt lat="42.57005" lon="1.94338">
        <ele>2503</ele>
        <time>2012-09-06T11:32:56Z</time>
      </trkpt>
      <trkpt lat="42.57007" lon="1.9433">
        <ele>2505</ele>
        <time>2012-09-06T11:33:26Z</time>
      </trkpt>
      <trkpt lat="42.57011" lon="1.94316">
        <ele>2507</ele>
        <time>2012-09-06T11:33:57Z</time>
      </trkpt>
      <trkpt lat="42.57013" lon="1.94302">
        <ele>2511</ele>
        <time>2012-09-06T11:34:27Z</time>
      </trkpt>
      <trkpt lat="42.57017" lon="1.94291">
        <ele>2515</ele>
        <time>2012-09-06T11:34:57Z</time>
      </trkpt>
      <trkpt lat="42.57022" lon="1.94282">
        <ele>2517</ele>
        <time>2012-09-06T11:35:28Z</time>
      </trkpt>
      <trkpt lat="42.57023" lon="1.94278">
        <ele>2518</ele>
        <time>2012-09-06T11:35:58Z</time>
      </trkpt>
      <trkpt lat="42.57027" lon="1.9427">
        <ele>2521</ele>
        <time>2012-09-06T11:36:28Z</time>
      </trkpt>
      <trkpt lat="42.5703" lon="1.94263">
        <ele>2523</ele>
        <time>2012-09-06T11:38:00Z</time>
      </trkpt>
      <trkpt lat="42.57032" lon="1.94253">
        <ele>2528</ele>
        <time>2012-09-06T11:39:00Z</time>
      </trkpt>
      <trkpt lat="42.57033" lon="1.94243">
        <ele>2532</ele>
        <time>2012-09-06T11:39:31Z</time>
      </trkpt>
      <trkpt lat="42.57036" lon="1.9423">
        <ele>2537</ele>
        <time>2012-09-06T11:42:03Z</time>
      </trkpt>
      <trkpt lat="42.57036" lon="1.94211">
        <ele>2543</ele>
        <time>2012-09-06T11:42:33Z</time>
      </trkpt>
      <trkpt lat="42.57036" lon="1.94202">
        <ele>2547</ele>
        <time>2012-09-06T11:43:03Z</time>
      </trkpt>
      <trkpt lat="42.57038" lon="1.94185">
        <ele>2552</ele>
        <time>2012-09-06T11:44:04Z</time>
      </trkpt>
      <trkpt lat="42.57043" lon="1.94163">
        <ele>2557</ele>
        <time>2012-09-06T11:44:34Z</time>
      </trkpt>
      <trkpt lat="42.57047" lon="1.94153">
        <ele>2559</ele>
        <time>2012-09-06T11:45:04Z</time>
      </trkpt>
      <trkpt lat="42.57046" lon="1.94146">
        <ele>2562</ele>
        <time>2012-09-06T11:45:35Z</time>
      </trkpt>
      <trkpt lat="42.57047" lon="1.9414">
        <ele>2564</ele>
        <time>2012-09-06T11:46:05Z</time>
      </trkpt>
      <trkpt lat="42.57048" lon="1.94132">
        <ele>2566</ele>
        <time>2012-09-06T11:46:35Z</time>
      </trkpt>
      <trkpt lat="42.57052" lon="1.94117">
        <ele>2572</ele>
        <time>2012-09-06T11:47:06Z</time>
      </trkpt>
      <trkpt lat="42.57052" lon="1.94102">
        <ele>2576</ele>
        <time>2012-09-06T11:47:36Z</time>
      </trkpt>
      <trkpt lat="42.57052" lon="1.94088">
        <ele>2580</ele>
        <time>2012-09-06T11:48:06Z</time>
      </trkpt>
      <trkpt lat="42.57052" lon="1.94072">
        <ele>2585</ele>
        <time>2012-09-06T11:48:37Z</time>
      </trkpt>
      <trkpt lat="42.5705" lon="1.94058">
        <ele>2589</ele>
        <time>2012-09-06T11:49:07Z</time>
      </trkpt>
      <trkpt lat="42.5705" lon="1.94058">
        <ele>2589</ele>
        <time>2012-09-06T11:49:37Z</time>
      </trkpt>
      <trkpt lat="42.5705" lon="1.94043">
        <ele>2592</ele>
        <time>2012-09-06T11:50:08Z</time>
      </trkpt>
      <trkpt lat="42.5705" lon="1.9403">
        <ele>2594</ele>
        <time>2012-09-06T11:50:38Z</time>
      </trkpt>
      <trkpt lat="42.57047" lon="1.94015">
        <ele>2597</ele>
        <time>2012-09-06T11:51:08Z</time>
      </trkpt>
      <trkpt lat="42.57043" lon="1.94012">
        <ele>2597</ele>
        <time>2012-09-06T11:51:39Z</time>
      </trkpt>
      <trkpt lat="42.57042" lon="1.9401">
        <ele>2598</ele>
        <time>2012-09-06T11:52:09Z</time>
      </trkpt>
      <trkpt lat="42.57042" lon="1.94007">
        <ele>2598</ele>
        <time>2012-09-06T11:55:11Z</time>
      </trkpt>
      <trkpt lat="42.57041" lon="1.94005">
        <ele>2598</ele>
        <time>2012-09-06T11:55:42Z</time>
      </trkpt>
      <trkpt lat="42.5704" lon="1.94003">
        <ele>2599</ele>
        <time>2012-09-06T11:56:12Z</time>
      </trkpt>
      <trkpt lat="42.57038" lon="1.94001">
        <ele>2599</ele>
        <time>2012-09-06T11:56:42Z</time>
      </trkpt>
      <trkpt lat="42.57033" lon="1.93995">
        <ele>2600</ele>
        <time>2012-09-06T11:57:13Z</time>
      </trkpt>
      <trkpt lat="42.57027" lon="1.93991">
        <ele>2602</ele>
        <time>2012-09-06T11:57:43Z</time>
      </trkpt>
      <trkpt lat="42.57018" lon="1.93981">
        <ele>2608</ele>
        <time>2012-09-06T11:58:13Z</time>
      </trkpt>
      <trkpt lat="42.57012" lon="1.93967">
        <ele>2613</ele>
        <time>2012-09-06T11:58:44Z</time>
      </trkpt>
      <trkpt lat="42.57009" lon="1.93952">
        <ele>2617</ele>
        <time>2012-09-06T11:59:14Z</time>
      </trkpt>
      <trkpt lat="42.57008" lon="1.93942">
        <ele>2620</ele>
        <time>2012-09-06T11:59:44Z</time>
      </trkpt>
      <trkpt lat="42.57005" lon="1.93937">
        <ele>2622</ele>
        <time>2012-09-06T12:00:15Z</time>
      </trkpt>
      <trkpt lat="42.57001" lon="1.93929">
        <ele>2624</ele>
        <time>2012-09-06T12:00:45Z</time>
      </trkpt>
      <trkpt lat="42.56998" lon="1.93917">
        <ele>2628</ele>
        <time>2012-09-06T12:01:15Z</time>
      </trkpt>
      <trkpt lat="42.57" lon="1.93903">
        <ele>2631</ele>
        <time>2012-09-06T12:01:46Z</time>
      </trkpt>
      <trkpt lat="42.57002" lon="1.93887">
        <ele>2635</ele>
        <time>2012-09-06T12:02:16Z</time>
      </trkpt>
      <trkpt lat="42.56998" lon="1.93878">
        <ele>2638</ele>
        <time>2012-09-06T12:02:46Z</time>
      </trkpt>
      <trkpt lat="42.56993" lon="1.9387">
        <ele>2641</ele>
        <time>2012-09-06T12:03:17Z</time>
      </trkpt>
      <trkpt lat="42.56993" lon="1.9386">
        <ele>2643</ele>
        <time>2012-09-06T12:03:47Z</time>
      </trkpt>
      <trkpt lat="42.56995" lon="1.93847">
        <ele>2646</ele>
        <time>2012-09-06T12:04:17Z</time>
      </trkpt>
      <trkpt lat="42.56995" lon="1.93843">
        <ele>2647</ele>
        <time>2012-09-06T12:04:48Z</time>
      </trkpt>
      <trkpt lat="42.56993" lon="1.93832">
        <ele>2650</ele>
        <time>2012-09-06T12:05:18Z</time>
      </trkpt>
      <trkpt lat="42.56988" lon="1.93821">
        <ele>2654</ele>
        <time>2012-09-06T12:05:48Z</time>
      </trkpt>
      <trkpt lat="42.56988" lon="1.93814">
        <ele>2655</ele>
        <time>2012-09-06T12:06:18Z</time>
      </trkpt>
      <trkpt lat="42.56983" lon="1.93789">
        <ele>2662</ele>
        <time>2012-09-06T12:06:49Z</time>
      </trkpt>
      <trkpt lat="42.56977" lon="1.93768">
        <ele>2668</ele>
        <time>2012-09-06T12:07:19Z</time>
      </trkpt>
      <trkpt lat="42.56972" lon="1.93753">
        <ele>2672</ele>
        <time>2012-09-06T12:07:49Z</time>
      </trkpt>
      <trkpt lat="42.56973" lon="1.93743">
        <ele>2675</ele>
        <time>2012-09-06T12:08:20Z</time>
      </trkpt>
      <trkpt lat="42.56971" lon="1.93732">
        <ele>2679</ele>
        <time>2012-09-06T12:08:50Z</time>
      </trkpt>
      <trkpt lat="42.56968" lon="1.9372">
        <ele>2682</ele>
        <time>2012-09-06T12:09:51Z</time>
      </trkpt>
      <trkpt lat="42.56965" lon="1.93711">
        <ele>2685</ele>
        <time>2012-09-06T12:10:21Z</time>
      </trkpt>
      <trkpt lat="42.56966" lon="1.93695">
        <ele>2690</ele>
        <time>2012-09-06T12:11:22Z</time>
      </trkpt>
      <trkpt lat="42.56967" lon="1.93683">
        <ele>2694</ele>
        <time>2012-09-06T12:11:52Z</time>
      </trkpt>
      <trkpt lat="42.56967" lon="1.93675">
        <ele>2698</ele>
        <time>2012-09-06T12:12:22Z</time>
      </trkpt>
      <trkpt lat="42.56967" lon="1.9367">
        <ele>2700</ele>
        <time>2012-09-06T12:12:53Z</time>
      </trkpt>
      <trkpt lat="42.56967" lon="1.93662">
        <ele>2703</ele>
        <time>2012-09-06T12:13:23Z</time>
      </trkpt>
      <trkpt lat="42.56962" lon="1.93653">
        <ele>2706</ele>
        <time>2012-09-06T12:13:54Z</time>
      </trkpt>
      <trkpt lat="42.56958" lon="1.93642">
        <ele>2711</ele>
        <time>2012-09-06T12:14:24Z</time>
      </trkpt>
      <trkpt lat="42.56958" lon="1.93638">
        <ele>2712</ele>
        <time>2012-09-06T12:14:54Z</time>
      </trkpt>
      <trkpt lat="42.56958" lon="1.93637">
        <ele>2713</ele>
        <time>2012-09-06T12:15:25Z</time>
      </trkpt>
      <trkpt lat="42.56957" lon="1.93627">
        <ele>2717</ele>
        <time>2012-09-06T12:16:56Z</time>
      </trkpt>
      <trkpt lat="42.56957" lon="1.93618">
        <ele>2720</ele>
        <time>2012-09-06T12:17:26Z</time>
      </trkpt>
      <trkpt lat="42.56955" lon="1.93613">
        <ele>2722</ele>
        <time>2012-09-06T12:17:56Z</time>
      </trkpt>
      <trkpt lat="42.56952" lon="1.93607">
        <ele>2724</ele>
        <time>2012-09-06T12:18:27Z</time>
      </trkpt>
      <trkpt lat="42.56957" lon="1.93603">
        <ele>2726</ele>
        <time>2012-09-06T12:18:57Z</time>
      </trkpt>
      <trkpt lat="42.56955" lon="1.93598">
        <ele>2728</ele>
        <time>2012-09-06T12:19:27Z</time>
      </trkpt>
      <trkpt lat="42.56953" lon="1.93583">
        <ele>2734</ele>
        <time>2012-09-06T12:19:58Z</time>
      </trkpt>
      <trkpt lat="42.56952" lon="1.93575">
        <ele>2737</ele>
        <time>2012-09-06T12:20:28Z</time>
      </trkpt>
      <trkpt lat="42.56953" lon="1.93567">
        <ele>2740</ele>
        <time>2012-09-06T12:20:58Z</time>
      </trkpt>
      <trkpt lat="42.56952" lon="1.9356">
        <ele>2743</ele>
        <time>2012-09-06T12:21:29Z</time>
      </trkpt>
      <trkpt lat="42.56948" lon="1.93553">
        <ele>2745</ele>
        <time>2012-09-06T12:21:59Z</time>
      </trkpt>
      <trkpt lat="42.56948" lon="1.9355">
        <ele>2746</ele>
        <time>2012-09-06T12:22:29Z</time>
      </trkpt>
      <trkpt lat="42.5695" lon="1.93532">
        <ele>2753</ele>
        <time>2012-09-06T12:23:00Z</time>
      </trkpt>
      <trkpt lat="42.56948" lon="1.93518">
        <ele>2758</ele>
        <time>2012-09-06T12:23:30Z</time>
      </trkpt>
      <trkpt lat="42.56947" lon="1.93508">
        <ele>2762</ele>
        <time>2012-09-06T12:24:00Z</time>
      </trkpt>
      <trkpt lat="42.56953" lon="1.93505">
        <ele>2763</ele>
        <time>2012-09-06T12:24:30Z</time>
      </trkpt>
      <trkpt lat="42.56953" lon="1.935">
        <ele>2764</ele>
        <time>2012-09-06T12:25:01Z</time>
      </trkpt>
      <trkpt lat="42.56954" lon="1.93495">
        <ele>2765</ele>
        <time>2012-09-06T12:26:02Z</time>
      </trkpt>
      <trkpt lat="42.56952" lon="1.93493">
        <ele>2765</ele>
        <time>2012-09-06T12:26:32Z</time>
      </trkpt>
      <trkpt lat="42.56953" lon="1.93488">
        <ele>2766</ele>
        <time>2012-09-06T12:27:02Z</time>
      </trkpt>
      <trkpt lat="42.56957" lon="1.93478">
        <ele>2768</ele>
        <time>2012-09-06T12:30:35Z</time>
      </trkpt>
      <trkpt lat="42.5696" lon="1.9346">
        <ele>2773</ele>
        <time>2012-09-06T12:31:05Z</time>
      </trkpt>
      <trkpt lat="42.56962" lon="1.93448">
        <ele>2776</ele>
        <time>2012-09-06T12:31:35Z</time>
      </trkpt>
      <trkpt lat="42.56965" lon="1.93437">
        <ele>2781</ele>
        <time>2012-09-06T12:32:06Z</time>
      </trkpt>
      <trkpt lat="42.5697" lon="1.93427">
        <ele>2786</ele>
        <time>2012-09-06T12:32:36Z</time>
      </trkpt>
      <trkpt lat="42.56977" lon="1.93417">
        <ele>2793</ele>
        <time>2012-09-06T12:33:06Z</time>
      </trkpt>
      <trkpt lat="42.56982" lon="1.9341">
        <ele>2797</ele>
        <time>2012-09-06T12:33:37Z</time>
      </trkpt>
      <trkpt lat="42.56985" lon="1.93405">
        <ele>2801</ele>
        <time>2012-09-06T12:34:07Z</time>
      </trkpt>
      <trkpt lat="42.56982" lon="1.93398">
        <ele>2804</ele>
        <time>2012-09-06T12:34:37Z</time>
      </trkpt>
      <trkpt lat="42.56981" lon="1.93397">
        <ele>2804</ele>
        <time>2012-09-06T12:35:08Z</time>
      </trkpt>
      <trkpt lat="42.56979" lon="1.93393">
        <ele>2806</ele>
        <time>2012-09-06T12:35:38Z</time>
      </trkpt>
      <trkpt lat="42.5698" lon="1.9339">
        <ele>2808</ele>
        <time>2012-09-06T12:36:08Z</time>
      </trkpt>
      <trkpt lat="42.5698" lon="1.93387">
        <ele>2810</ele>
        <time>2012-09-06T12:36:39Z</time>
      </trkpt>
      <trkpt lat="42.56982" lon="1.93382">
        <ele>2813</ele>
        <time>2012-09-06T12:37:09Z</time>
      </trkpt>
      <trkpt lat="42.56982" lon="1.9338">
        <ele>2814</ele>
        <time>2012-09-06T12:37:39Z</time>
      </trkpt>
      <trkpt lat="42.56983" lon="1.93377">
        <ele>2817</ele>
        <time>2012-09-06T12:38:10Z</time>
      </trkpt>
      <trkpt lat="42.56983" lon="1.93372">
        <ele>2819</ele>
        <time>2012-09-06T12:38:40Z</time>
      </trkpt>
      <trkpt lat="42.56985" lon="1.93367">
        <ele>2823</ele>
        <time>2012-09-06T12:39:10Z</time>
      </trkpt>
      <trkpt lat="42.56988" lon="1.93364">
        <ele>2824</ele>
        <time>2012-09-06T12:39:41Z</time>
      </trkpt>
      <trkpt lat="42.56991" lon="1.93361">
        <ele>2825</ele>
        <time>2012-09-06T12:40:42Z</time>
      </trkpt>
      <trkpt lat="42.56994" lon="1.93359">
        <ele>2825</ele>
        <time>2012-09-06T12:41:12Z</time>
      </trkpt>
      <trkpt lat="42.56997" lon="1.93358">
        <ele>2825</ele>
        <time>2012-09-06T12:41:42Z</time>
      </trkpt>
      <trkpt lat="42.57" lon="1.93353">
        <ele>2827</ele>
        <time>2012-09-06T12:42:13Z</time>
      </trkpt>
      <trkpt lat="42.57001" lon="1.9335">
        <ele>2828</ele>
        <time>2012-09-06T12:42:43Z</time>
      </trkpt>
      <trkpt lat="42.57" lon="1.93346">
        <ele>2830</ele>
        <time>2012-09-06T12:43:13Z</time>
      </trkpt>
      <trkpt lat="42.57001" lon="1.93341">
        <ele>2833</ele>
        <time>2012-09-06T12:44:44Z</time>
      </trkpt>
      <trkpt lat="42.57003" lon="1.93337">
        <ele>2835</ele>
        <time>2012-09-06T12:45:15Z</time>
      </trkpt>
      <trkpt lat="42.57005" lon="1.93332">
        <ele>2838</ele>
        <time>2012-09-06T12:45:45Z</time>
      </trkpt>
      <trkpt lat="42.57011" lon="1.93327">
        <ele>2839</ele>
        <time>2012-09-06T12:46:16Z</time>
      </trkpt>
      <trkpt lat="42.57014" lon="1.93325">
        <ele>2839</ele>
        <time>2012-09-06T12:46:46Z</time>
      </trkpt>
      <trkpt lat="42.57017" lon="1.93318">
        <ele>2842</ele>
        <time>2012-09-06T12:47:16Z</time>
      </trkpt>
      <trkpt lat="42.57018" lon="1.93308">
        <ele>2847</ele>
        <time>2012-09-06T12:47:46Z</time>
      </trkpt>
      <trkpt lat="42.5702" lon="1.93299">
        <ele>2851</ele>
        <time>2012-09-06T12:48:17Z</time>
      </trkpt>
      <trkpt lat="42.5702" lon="1.93295">
        <ele>2854</ele>
        <time>2012-09-06T12:48:47Z</time>
      </trkpt>
      <trkpt lat="42.57022" lon="1.93288">
        <ele>2857</ele>
        <time>2012-09-06T12:49:17Z</time>
      </trkpt>
      <trkpt lat="42.57024" lon="1.9328">
        <ele>2861</ele>
        <time>2012-09-06T12:49:48Z</time>
      </trkpt>
      <trkpt lat="42.57025" lon="1.93275">
        <ele>2864</ele>
        <time>2012-09-06T12:50:18Z</time>
      </trkpt>
      <trkpt lat="42.5703" lon="1.93272">
        <ele>2865</ele>
        <time>2012-09-06T12:50:48Z</time>
      </trkpt>
      <trkpt lat="42.5703" lon="1.93267">
        <ele>2868</ele>
        <time>2012-09-06T12:51:19Z</time>
      </trkpt>
      <trkpt lat="42.57035" lon="1.93255">
        <ele>2872</ele>
        <time>2012-09-06T12:51:49Z</time>
      </trkpt>
      <trkpt lat="42.57042" lon="1.9325">
        <ele>2873</ele>
        <time>2012-09-06T12:52:19Z</time>
      </trkpt>
      <trkpt lat="42.57045" lon="1.93248">
        <ele>2874</ele>
        <time>2012-09-06T12:52:50Z</time>
      </trkpt>
      <trkpt lat="42.5705" lon="1.9324">
        <ele>2876</ele>
        <time>2012-09-06T12:53:20Z</time>
      </trkpt>
      <trkpt lat="42.57049" lon="1.93237">
        <ele>2877</ele>
        <time>2012-09-06T12:53:50Z</time>
      </trkpt>
      <trkpt lat="42.57052" lon="1.93233">
        <ele>2878</ele>
        <time>2012-09-06T12:54:21Z</time>
      </trkpt>
      <trkpt lat="42.57052" lon="1.93225">
        <ele>2880</ele>
        <time>2012-09-06T12:54:51Z</time>
      </trkpt>
      <trkpt lat="42.57055" lon="1.93223">
        <ele>2880</ele>
        <time>2012-09-06T12:55:21Z</time>
      </trkpt>
      <trkpt lat="42.57055" lon="1.93215">
        <ele>2882</ele>
        <time>2012-09-06T12:55:52Z</time>
      </trkpt>
      <trkpt lat="42.57055" lon="1.93208">
        <ele>2884</ele>
        <time>2012-09-06T12:56:22Z</time>
      </trkpt>
      <trkpt lat="42.57052" lon="1.93205">
        <ele>2885</ele>
        <time>2012-09-06T12:56:52Z</time>
      </trkpt>
      <trkpt lat="42.57047" lon="1.93195">
        <ele>2884</ele>
        <time>2012-09-06T12:57:23Z</time>
      </trkpt>
      <trkpt lat="42.57042" lon="1.93192">
        <ele>2883</ele>
        <time>2012-09-06T12:57:53Z</time>
      </trkpt>
      <trkpt lat="42.57032" lon="1.93186">
        <ele>2881</ele>
        <time>2012-09-06T12:58:23Z</time>
      </trkpt>
      <trkpt lat="42.57025" lon="1.93186">
        <ele>2880</ele>
        <time>2012-09-06T12:58:54Z</time>
      </trkpt>
      <trkpt lat="42.57015" lon="1.93191">
        <ele>2880</ele>
        <time>2012-09-06T12:59:24Z</time>
      </trkpt>
      <trkpt lat="42.57011" lon="1.93195">
        <ele>2882</ele>
        <time>2012-09-06T12:59:55Z</time>
      </trkpt>
      <trkpt lat="42.57" lon="1.93205">
        <ele>2885</ele>
        <time>2012-09-06T13:00:25Z</time>
      </trkpt>
      <trkpt lat="42.56994" lon="1.93208">
        <ele>2884</ele>
        <time>2012-09-06T13:00:55Z</time>
      </trkpt>
      <trkpt lat="42.56992" lon="1.93207">
        <ele>2885</ele>
        <time>2012-09-06T13:01:26Z</time>
      </trkpt>
      <trkpt lat="42.56989" lon="1.93206">
        <ele>2885</ele>
        <time>2012-09-06T13:01:56Z</time>
      </trkpt>
      <trkpt lat="42.56987" lon="1.93207">
        <ele>2885</ele>
        <time>2012-09-06T13:02:26Z</time>
      </trkpt>
      <trkpt lat="42.56983" lon="1.93206">
        <ele>2884</ele>
        <time>2012-09-06T13:02:57Z</time>
      </trkpt>
      <trkpt lat="42.56989" lon="1.9321">
        <ele>2884</ele>
        <time>2012-09-06T13:08:31Z</time>
      </trkpt>
      <trkpt lat="42.56993" lon="1.93211">
        <ele>2884</ele>
        <time>2012-09-06T13:09:01Z</time>
      </trkpt>
      <trkpt lat="42.56998" lon="1.93209">
        <ele>2884</ele>
        <time>2012-09-06T13:09:32Z</time>
      </trkpt>
      <trkpt lat="42.57008" lon="1.932">
        <ele>2884</ele>
        <time>2012-09-06T13:10:02Z</time>
      </trkpt>
      <trkpt lat="42.57018" lon="1.9319">
        <ele>2881</ele>
        <time>2012-09-06T13:10:32Z</time>
      </trkpt>
      <trkpt lat="42.57028" lon="1.93187">
        <ele>2881</ele>
        <time>2012-09-06T13:11:03Z</time>
      </trkpt>
      <trkpt lat="42.57032" lon="1.9319">
        <ele>2882</ele>
        <time>2012-09-06T13:11:33Z</time>
      </trkpt>
      <trkpt lat="42.57036" lon="1.93186">
        <ele>2881</ele>
        <time>2012-09-06T13:12:03Z</time>
      </trkpt>
      <trkpt lat="42.57044" lon="1.93186">
        <ele>2882</ele>
        <time>2012-09-06T13:12:34Z</time>
      </trkpt>
      <trkpt lat="42.57055" lon="1.93187">
        <ele>2883</ele>
        <time>2012-09-06T13:13:04Z</time>
      </trkpt>
      <trkpt lat="42.57065" lon="1.93177">
        <ele>2883</ele>
        <time>2012-09-06T13:13:35Z</time>
      </trkpt>
      <trkpt lat="42.57077" lon="1.93168">
        <ele>2884</ele>
        <time>2012-09-06T13:14:05Z</time>
      </trkpt>
      <trkpt lat="42.5709" lon="1.93158">
        <ele>2882</ele>
        <time>2012-09-06T13:14:35Z</time>
      </trkpt>
      <trkpt lat="42.57087" lon="1.93162">
        <ele>2882</ele>
        <time>2012-09-06T13:15:06Z</time>
      </trkpt>
      <trkpt lat="42.5707" lon="1.93173">
        <ele>2883</ele>
        <time>2012-09-06T13:20:40Z</time>
      </trkpt>
      <trkpt lat="42.57058" lon="1.93188">
        <ele>2883</ele>
        <time>2012-09-06T13:21:10Z</time>
      </trkpt>
      <trkpt lat="42.5705" lon="1.932">
        <ele>2885</ele>
        <time>2012-09-06T13:21:40Z</time>
      </trkpt>
      <trkpt lat="42.57048" lon="1.93207">
        <ele>2885</ele>
        <time>2012-09-06T13:22:11Z</time>
      </trkpt>
      <trkpt lat="42.57052" lon="1.93216">
        <ele>2882</ele>
        <time>2012-09-06T13:22:41Z</time>
      </trkpt>
      <trkpt lat="42.57048" lon="1.93224">
        <ele>2880</ele>
        <time>2012-09-06T13:23:11Z</time>
      </trkpt>
      <trkpt lat="42.57052" lon="1.93233">
        <ele>2878</ele>
        <time>2012-09-06T13:23:42Z</time>
      </trkpt>
      <trkpt lat="42.57048" lon="1.93245">
        <ele>2875</ele>
        <time>2012-09-06T13:24:12Z</time>
      </trkpt>
      <trkpt lat="42.5704" lon="1.93253">
        <ele>2872</ele>
        <time>2012-09-06T13:24:42Z</time>
      </trkpt>
      <trkpt lat="42.57035" lon="1.93265">
        <ele>2869</ele>
        <time>2012-09-06T13:25:13Z</time>
      </trkpt>
      <trkpt lat="42.57033" lon="1.93272">
        <ele>2865</ele>
        <time>2012-09-06T13:25:43Z</time>
      </trkpt>
      <trkpt lat="42.57029" lon="1.93278">
        <ele>2861</ele>
        <time>2012-09-06T13:26:13Z</time>
      </trkpt>
      <trkpt lat="42.57025" lon="1.93287">
        <ele>2857</ele>
        <time>2012-09-06T13:26:44Z</time>
      </trkpt>
      <trkpt lat="42.57023" lon="1.93293">
        <ele>2854</ele>
        <time>2012-09-06T13:27:14Z</time>
      </trkpt>
      <trkpt lat="42.57022" lon="1.93302">
        <ele>2850</ele>
        <time>2012-09-06T13:27:44Z</time>
      </trkpt>
      <trkpt lat="42.5702" lon="1.93311">
        <ele>2844</ele>
        <time>2012-09-06T13:28:15Z</time>
      </trkpt>
      <trkpt lat="42.57015" lon="1.9332">
        <ele>2841</ele>
        <time>2012-09-06T13:28:45Z</time>
      </trkpt>
      <trkpt lat="42.57012" lon="1.93322">
        <ele>2841</ele>
        <time>2012-09-06T13:29:15Z</time>
      </trkpt>
      <trkpt lat="42.5701" lon="1.93325">
        <ele>2840</ele>
        <time>2012-09-06T13:29:46Z</time>
      </trkpt>
      <trkpt lat="42.57008" lon="1.9333">
        <ele>2838</ele>
        <time>2012-09-06T13:30:16Z</time>
      </trkpt>
      <trkpt lat="42.57005" lon="1.93335">
        <ele>2836</ele>
        <time>2012-09-06T13:30:47Z</time>
      </trkpt>
      <trkpt lat="42.57003" lon="1.93342">
        <ele>2832</ele>
        <time>2012-09-06T13:31:17Z</time>
      </trkpt>
      <trkpt lat="42.57002" lon="1.93345">
        <ele>2831</ele>
        <time>2012-09-06T13:31:47Z</time>
      </trkpt>
      <trkpt lat="42.57002" lon="1.93355">
        <ele>2825</ele>
        <time>2012-09-06T13:32:17Z</time>
      </trkpt>
      <trkpt lat="42.56998" lon="1.9336">
        <ele>2823</ele>
        <time>2012-09-06T13:35:20Z</time>
      </trkpt>
      <trkpt lat="42.56997" lon="1.93362">
        <ele>2823</ele>
        <time>2012-09-06T13:35:50Z</time>
      </trkpt>
      <trkpt lat="42.56993" lon="1.93362">
        <ele>2824</ele>
        <time>2012-09-06T13:36:20Z</time>
      </trkpt>
      <trkpt lat="42.56988" lon="1.93367">
        <ele>2822</ele>
        <time>2012-09-06T13:36:51Z</time>
      </trkpt>
      <trkpt lat="42.56985" lon="1.93373">
        <ele>2819</ele>
        <time>2012-09-06T13:37:21Z</time>
      </trkpt>
      <trkpt lat="42.56982" lon="1.93375">
        <ele>2817</ele>
        <time>2012-09-06T13:37:51Z</time>
      </trkpt>
      <trkpt lat="42.56982" lon="1.9338">
        <ele>2814</ele>
        <time>2012-09-06T13:38:22Z</time>
      </trkpt>
      <trkpt lat="42.56982" lon="1.93382">
        <ele>2813</ele>
        <time>2012-09-06T13:38:52Z</time>
      </trkpt>
      <trkpt lat="42.56978" lon="1.93388">
        <ele>2808</ele>
        <time>2012-09-06T13:39:23Z</time>
      </trkpt>
      <trkpt lat="42.5698" lon="1.93392">
        <ele>2807</ele>
        <time>2012-09-06T13:39:53Z</time>
      </trkpt>
      <trkpt lat="42.5698" lon="1.93395">
        <ele>2805</ele>
        <time>2012-09-06T13:40:23Z</time>
      </trkpt>
      <trkpt lat="42.56985" lon="1.93398">
        <ele>2805</ele>
        <time>2012-09-06T13:40:54Z</time>
      </trkpt>
      <trkpt lat="42.56986" lon="1.93402">
        <ele>2803</ele>
        <time>2012-09-06T13:41:24Z</time>
      </trkpt>
      <trkpt lat="42.56983" lon="1.93407">
        <ele>2800</ele>
        <time>2012-09-06T13:41:54Z</time>
      </trkpt>
      <trkpt lat="42.56985" lon="1.9341">
        <ele>2798</ele>
        <time>2012-09-06T13:42:25Z</time>
      </trkpt>
      <trkpt lat="42.56975" lon="1.93425">
        <ele>2788</ele>
        <time>2012-09-06T13:42:55Z</time>
      </trkpt>
      <trkpt lat="42.5697" lon="1.9343">
        <ele>2785</ele>
        <time>2012-09-06T13:43:25Z</time>
      </trkpt>
      <trkpt lat="42.56965" lon="1.93443">
        <ele>2778</ele>
        <time>2012-09-06T13:43:56Z</time>
      </trkpt>
      <trkpt lat="42.56958" lon="1.93465">
        <ele>2772</ele>
        <time>2012-09-06T13:44:26Z</time>
      </trkpt>
      <trkpt lat="42.56955" lon="1.93482">
        <ele>2768</ele>
        <time>2012-09-06T13:44:56Z</time>
      </trkpt>
      <trkpt lat="42.5696" lon="1.93485">
        <ele>2767</ele>
        <time>2012-09-06T13:45:27Z</time>
      </trkpt>
      <trkpt lat="42.56967" lon="1.93503">
        <ele>2762</ele>
        <time>2012-09-06T13:45:57Z</time>
      </trkpt>
      <trkpt lat="42.5697" lon="1.93522">
        <ele>2756</ele>
        <time>2012-09-06T13:46:27Z</time>
      </trkpt>
      <trkpt lat="42.56972" lon="1.93547">
        <ele>2747</ele>
        <time>2012-09-06T13:46:57Z</time>
      </trkpt>
      <trkpt lat="42.5697" lon="1.93558">
        <ele>2743</ele>
        <time>2012-09-06T13:47:28Z</time>
      </trkpt>
      <trkpt lat="42.56969" lon="1.93568">
        <ele>2740</ele>
        <time>2012-09-06T13:47:58Z</time>
      </trkpt>
      <trkpt lat="42.56968" lon="1.93575">
        <ele>2737</ele>
        <time>2012-09-06T13:48:28Z</time>
      </trkpt>
      <trkpt lat="42.5697" lon="1.93585">
        <ele>2734</ele>
        <time>2012-09-06T13:48:59Z</time>
      </trkpt>
      <trkpt lat="42.5697" lon="1.93585">
        <ele>2734</ele>
        <time>2012-09-06T13:49:29Z</time>
      </trkpt>
      <trkpt lat="42.56968" lon="1.93592">
        <ele>2731</ele>
        <time>2012-09-06T13:50:30Z</time>
      </trkpt>
      <trkpt lat="42.56967" lon="1.93605">
        <ele>2726</ele>
        <time>2012-09-06T13:51:00Z</time>
      </trkpt>
      <trkpt lat="42.56967" lon="1.93612">
        <ele>2723</ele>
        <time>2012-09-06T13:51:30Z</time>
      </trkpt>
      <trkpt lat="42.56963" lon="1.93615">
        <ele>2722</ele>
        <time>2012-09-06T13:52:01Z</time>
      </trkpt>
      <trkpt lat="42.56958" lon="1.93617">
        <ele>2721</ele>
        <time>2012-09-06T13:52:31Z</time>
      </trkpt>
      <trkpt lat="42.56955" lon="1.93618">
        <ele>2720</ele>
        <time>2012-09-06T13:53:01Z</time>
      </trkpt>
      <trkpt lat="42.56957" lon="1.93632">
        <ele>2715</ele>
        <time>2012-09-06T13:53:32Z</time>
      </trkpt>
      <trkpt lat="42.56963" lon="1.93652">
        <ele>2707</ele>
        <time>2012-09-06T13:54:02Z</time>
      </trkpt>
      <trkpt lat="42.56965" lon="1.93663">
        <ele>2702</ele>
        <time>2012-09-06T13:54:32Z</time>
      </trkpt>
      <trkpt lat="42.56963" lon="1.93687">
        <ele>2692</ele>
        <time>2012-09-06T13:55:03Z</time>
      </trkpt>
      <trkpt lat="42.56963" lon="1.93708">
        <ele>2685</ele>
        <time>2012-09-06T13:55:33Z</time>
      </trkpt>
      <trkpt lat="42.56965" lon="1.93722">
        <ele>2681</ele>
        <time>2012-09-06T13:56:03Z</time>
      </trkpt>
      <trkpt lat="42.56972" lon="1.93745">
        <ele>2675</ele>
        <time>2012-09-06T13:56:34Z</time>
      </trkpt>
      <trkpt lat="42.56975" lon="1.93767">
        <ele>2668</ele>
        <time>2012-09-06T13:57:04Z</time>
      </trkpt>
      <trkpt lat="42.56982" lon="1.93796">
        <ele>2660</ele>
        <time>2012-09-06T13:57:34Z</time>
      </trkpt>
      <trkpt lat="42.56985" lon="1.9382">
        <ele>2654</ele>
        <time>2012-09-06T13:58:04Z</time>
      </trkpt>
      <trkpt lat="42.5699" lon="1.9383">
        <ele>2651</ele>
        <time>2012-09-06T13:58:35Z</time>
      </trkpt>
      <trkpt lat="42.56992" lon="1.93849">
        <ele>2646</ele>
        <time>2012-09-06T13:59:05Z</time>
      </trkpt>
      <trkpt lat="42.5699" lon="1.93868">
        <ele>2642</ele>
        <time>2012-09-06T13:59:35Z</time>
      </trkpt>
      <trkpt lat="42.56997" lon="1.93896">
        <ele>2634</ele>
        <time>2012-09-06T14:00:06Z</time>
      </trkpt>
      <trkpt lat="42.56997" lon="1.93913">
        <ele>2629</ele>
        <time>2012-09-06T14:00:36Z</time>
      </trkpt>
      <trkpt lat="42.56997" lon="1.9392">
        <ele>2628</ele>
        <time>2012-09-06T14:01:06Z</time>
      </trkpt>
      <trkpt lat="42.57005" lon="1.93935">
        <ele>2622</ele>
        <time>2012-09-06T14:01:37Z</time>
      </trkpt>
      <trkpt lat="42.5701" lon="1.93963">
        <ele>2614</ele>
        <time>2012-09-06T14:02:07Z</time>
      </trkpt>
      <trkpt lat="42.5702" lon="1.93985">
        <ele>2606</ele>
        <time>2012-09-06T14:02:37Z</time>
      </trkpt>
      <trkpt lat="42.57027" lon="1.93995">
        <ele>2601</ele>
        <time>2012-09-06T14:03:08Z</time>
      </trkpt>
      <trkpt lat="42.57028" lon="1.94002">
        <ele>2600</ele>
        <time>2012-09-06T14:03:38Z</time>
      </trkpt>
      <trkpt lat="42.57027" lon="1.94008">
        <ele>2599</ele>
        <time>2012-09-06T14:27:57Z</time>
      </trkpt>
      <trkpt lat="42.57027" lon="1.94008">
        <ele>2599</ele>
        <time>2012-09-06T14:28:28Z</time>
      </trkpt>
      <trkpt lat="42.57032" lon="1.93995">
        <ele>2600</ele>
        <time>2012-09-06T14:28:58Z</time>
      </trkpt>
      <trkpt lat="42.57037" lon="1.93998">
        <ele>2599</ele>
        <time>2012-09-06T14:29:28Z</time>
      </trkpt>
      <trkpt lat="42.57046" lon="1.9401">
        <ele>2598</ele>
        <time>2012-09-06T14:29:58Z</time>
      </trkpt>
      <trkpt lat="42.57052" lon="1.9403">
        <ele>2595</ele>
        <time>2012-09-06T14:30:29Z</time>
      </trkpt>
      <trkpt lat="42.57051" lon="1.9404">
        <ele>2593</ele>
        <time>2012-09-06T14:30:59Z</time>
      </trkpt>
      <trkpt lat="42.57052" lon="1.94052">
        <ele>2591</ele>
        <time>2012-09-06T14:31:30Z</time>
      </trkpt>
      <trkpt lat="42.57052" lon="1.94067">
        <ele>2586</ele>
        <time>2012-09-06T14:32:00Z</time>
      </trkpt>
      <trkpt lat="42.57053" lon="1.9408">
        <ele>2583</ele>
        <time>2012-09-06T14:32:30Z</time>
      </trkpt>
      <trkpt lat="42.57053" lon="1.94103">
        <ele>2576</ele>
        <time>2012-09-06T14:33:01Z</time>
      </trkpt>
      <trkpt lat="42.57052" lon="1.94115">
        <ele>2573</ele>
        <time>2012-09-06T14:33:31Z</time>
      </trkpt>
      <trkpt lat="42.57051" lon="1.94121">
        <ele>2570</ele>
        <time>2012-09-06T14:34:32Z</time>
      </trkpt>
      <trkpt lat="42.5705" lon="1.94134">
        <ele>2565</ele>
        <time>2012-09-06T14:35:02Z</time>
      </trkpt>
      <trkpt lat="42.57049" lon="1.94143">
        <ele>2562</ele>
        <time>2012-09-06T14:35:32Z</time>
      </trkpt>
      <trkpt lat="42.57046" lon="1.94151">
        <ele>2560</ele>
        <time>2012-09-06T14:36:03Z</time>
      </trkpt>
      <trkpt lat="42.5704" lon="1.94175">
        <ele>2554</ele>
        <time>2012-09-06T14:36:33Z</time>
      </trkpt>
      <trkpt lat="42.57038" lon="1.94195">
        <ele>2548</ele>
        <time>2012-09-06T14:37:03Z</time>
      </trkpt>
      <trkpt lat="42.57038" lon="1.94217">
        <ele>2541</ele>
        <time>2012-09-06T14:37:34Z</time>
      </trkpt>
      <trkpt lat="42.57037" lon="1.9423">
        <ele>2536</ele>
        <time>2012-09-06T14:38:04Z</time>
      </trkpt>
      <trkpt lat="42.57037" lon="1.94238">
        <ele>2533</ele>
        <time>2012-09-06T14:38:34Z</time>
      </trkpt>
      <trkpt lat="42.57036" lon="1.94242">
        <ele>2531</ele>
        <time>2012-09-06T14:39:05Z</time>
      </trkpt>
      <trkpt lat="42.57032" lon="1.9425">
        <ele>2530</ele>
        <time>2012-09-06T14:39:35Z</time>
      </trkpt>
      <trkpt lat="42.5703" lon="1.94258">
        <ele>2526</ele>
        <time>2012-09-06T14:40:05Z</time>
      </trkpt>
      <trkpt lat="42.57029" lon="1.94263">
        <ele>2524</ele>
        <time>2012-09-06T14:40:36Z</time>
      </trkpt>
      <trkpt lat="42.57028" lon="1.9427">
        <ele>2520</ele>
        <time>2012-09-06T14:41:06Z</time>
      </trkpt>
      <trkpt lat="42.57022" lon="1.94282">
        <ele>2517</ele>
        <time>2012-09-06T14:41:36Z</time>
      </trkpt>
      <trkpt lat="42.57017" lon="1.94293">
        <ele>2513</ele>
        <time>2012-09-06T14:42:07Z</time>
      </trkpt>
      <trkpt lat="42.57013" lon="1.94306">
        <ele>2510</ele>
        <time>2012-09-06T14:42:37Z</time>
      </trkpt>
      <trkpt lat="42.57012" lon="1.94318">
        <ele>2506</ele>
        <time>2012-09-06T14:43:07Z</time>
      </trkpt>
      <trkpt lat="42.57006" lon="1.94332">
        <ele>2505</ele>
        <time>2012-09-06T14:43:37Z</time>
      </trkpt>
      <trkpt lat="42.57005" lon="1.94341">
        <ele>2502</ele>
        <time>2012-09-06T14:44:08Z</time>
      </trkpt>
      <trkpt lat="42.57003" lon="1.9436">
        <ele>2498</ele>
        <time>2012-09-06T14:44:38Z</time>
      </trkpt>
      <trkpt lat="42.57006" lon="1.94375">
        <ele>2494</ele>
        <time>2012-09-06T14:45:08Z</time>
      </trkpt>
      <trkpt lat="42.57006" lon="1.94385">
        <ele>2493</ele>
        <time>2012-09-06T14:45:39Z</time>
      </trkpt>
      <trkpt lat="42.57009" lon="1.94404">
        <ele>2490</ele>
        <time>2012-09-06T14:46:09Z</time>
      </trkpt>
      <trkpt lat="42.57013" lon="1.94418">
        <ele>2485</ele>
        <time>2012-09-06T14:46:39Z</time>
      </trkpt>
      <trkpt lat="42.57017" lon="1.94428">
        <ele>2482</ele>
        <time>2012-09-06T14:47:10Z</time>
      </trkpt>
      <trkpt lat="42.57022" lon="1.9444">
        <ele>2478</ele>
        <time>2012-09-06T14:47:40Z</time>
      </trkpt>
      <trkpt lat="42.57027" lon="1.94452">
        <ele>2473</ele>
        <time>2012-09-06T14:48:11Z</time>
      </trkpt>
      <trkpt lat="42.57032" lon="1.94462">
        <ele>2468</ele>
        <time>2012-09-06T14:49:11Z</time>
      </trkpt>
      <trkpt lat="42.57039" lon="1.94481">
        <ele>2461</ele>
        <time>2012-09-06T14:49:42Z</time>
      </trkpt>
      <trkpt lat="42.57042" lon="1.94488">
        <ele>2460</ele>
        <time>2012-09-06T14:50:12Z</time>
      </trkpt>
      <trkpt lat="42.57044" lon="1.94495">
        <ele>2458</ele>
        <time>2012-09-06T14:50:42Z</time>
      </trkpt>
      <trkpt lat="42.57048" lon="1.94509">
        <ele>2455</ele>
        <time>2012-09-06T14:51:13Z</time>
      </trkpt>
      <trkpt lat="42.57051" lon="1.9452">
        <ele>2453</ele>
        <time>2012-09-06T14:51:43Z</time>
      </trkpt>
      <trkpt lat="42.57064" lon="1.94539">
        <ele>2444</ele>
        <time>2012-09-06T14:52:13Z</time>
      </trkpt>
      <trkpt lat="42.57075" lon="1.94548">
        <ele>2438</ele>
        <time>2012-09-06T14:53:14Z</time>
      </trkpt>
      <trkpt lat="42.57083" lon="1.94557">
        <ele>2434</ele>
        <time>2012-09-06T14:53:44Z</time>
      </trkpt>
      <trkpt lat="42.57093" lon="1.94582">
        <ele>2432</ele>
        <time>2012-09-06T14:54:14Z</time>
      </trkpt>
      <trkpt lat="42.57091" lon="1.94594">
        <ele>2432</ele>
        <time>2012-09-06T14:54:45Z</time>
      </trkpt>
      <trkpt lat="42.57092" lon="1.9461">
        <ele>2432</ele>
        <time>2012-09-06T14:55:15Z</time>
      </trkpt>
      <trkpt lat="42.57098" lon="1.94637">
        <ele>2429</ele>
        <time>2012-09-06T14:55:45Z</time>
      </trkpt>
      <trkpt lat="42.57096" lon="1.94655">
        <ele>2429</ele>
        <time>2012-09-06T14:56:16Z</time>
      </trkpt>
      <trkpt lat="42.57096" lon="1.94673">
        <ele>2428</ele>
        <time>2012-09-06T14:56:46Z</time>
      </trkpt>
      <trkpt lat="42.57094" lon="1.94692">
        <ele>2427</ele>
        <time>2012-09-06T14:57:16Z</time>
      </trkpt>
      <trkpt lat="42.57098" lon="1.94717">
        <ele>2424</ele>
        <time>2012-09-06T14:57:47Z</time>
      </trkpt>
      <trkpt lat="42.57117" lon="1.94747">
        <ele>2419</ele>
        <time>2012-09-06T14:58:17Z</time>
      </trkpt>
      <trkpt lat="42.57127" lon="1.94772">
        <ele>2415</ele>
        <time>2012-09-06T14:58:47Z</time>
      </trkpt>
      <trkpt lat="42.57126" lon="1.94792">
        <ele>2413</ele>
        <time>2012-09-06T14:59:18Z</time>
      </trkpt>
      <trkpt lat="42.57126" lon="1.9481">
        <ele>2412</ele>
        <time>2012-09-06T14:59:48Z</time>
      </trkpt>
      <trkpt lat="42.57126" lon="1.94823">
        <ele>2411</ele>
        <time>2012-09-06T15:00:18Z</time>
      </trkpt>
      <trkpt lat="42.57125" lon="1.94852">
        <ele>2409</ele>
        <time>2012-09-06T15:00:49Z</time>
      </trkpt>
      <trkpt lat="42.57132" lon="1.94872">
        <ele>2405</ele>
        <time>2012-09-06T15:01:19Z</time>
      </trkpt>
      <trkpt lat="42.57143" lon="1.94885">
        <ele>2400</ele>
        <time>2012-09-06T15:01:49Z</time>
      </trkpt>
      <trkpt lat="42.57157" lon="1.94899">
        <ele>2394</ele>
        <time>2012-09-06T15:02:20Z</time>
      </trkpt>
      <trkpt lat="42.57167" lon="1.94915">
        <ele>2389</ele>
        <time>2012-09-06T15:03:20Z</time>
      </trkpt>
      <trkpt lat="42.57167" lon="1.94933">
        <ele>2387</ele>
        <time>2012-09-06T15:03:51Z</time>
      </trkpt>
      <trkpt lat="42.57167" lon="1.94952">
        <ele>2384</ele>
        <time>2012-09-06T15:04:21Z</time>
      </trkpt>
      <trkpt lat="42.57168" lon="1.94967">
        <ele>2382</ele>
        <time>2012-09-06T15:04:51Z</time>
      </trkpt>
      <trkpt lat="42.57176" lon="1.94976">
        <ele>2379</ele>
        <time>2012-09-06T15:05:21Z</time>
      </trkpt>
      <trkpt lat="42.57181" lon="1.94996">
        <ele>2376</ele>
        <time>2012-09-06T15:05:52Z</time>
      </trkpt>
      <trkpt lat="42.57174" lon="1.95028">
        <ele>2372</ele>
        <time>2012-09-06T15:06:22Z</time>
      </trkpt>
      <trkpt lat="42.57167" lon="1.95057">
        <ele>2369</ele>
        <time>2012-09-06T15:06:52Z</time>
      </trkpt>
      <trkpt lat="42.57159" lon="1.95083">
        <ele>2366</ele>
        <time>2012-09-06T15:07:23Z</time>
      </trkpt>
      <trkpt lat="42.57158" lon="1.95108">
        <ele>2364</ele>
        <time>2012-09-06T15:07:53Z</time>
      </trkpt>
      <trkpt lat="42.57158" lon="1.95125">
        <ele>2362</ele>
        <time>2012-09-06T15:08:23Z</time>
      </trkpt>
      <trkpt lat="42.57152" lon="1.95159">
        <ele>2360</ele>
        <time>2012-09-06T15:08:54Z</time>
      </trkpt>
      <trkpt lat="42.57146" lon="1.95179">
        <ele>2360</ele>
        <time>2012-09-06T15:09:24Z</time>
      </trkpt>
      <trkpt lat="42.57153" lon="1.9521">
        <ele>2357</ele>
        <time>2012-09-06T15:09:54Z</time>
      </trkpt>
      <trkpt lat="42.57157" lon="1.95228">
        <ele>2357</ele>
        <time>2012-09-06T15:10:25Z</time>
      </trkpt>
      <trkpt lat="42.57165" lon="1.95265">
        <ele>2358</ele>
        <time>2012-09-06T15:10:55Z</time>
      </trkpt>
      <trkpt lat="42.57173" lon="1.95302">
        <ele>2357</ele>
        <time>2012-09-06T15:11:25Z</time>
      </trkpt>
      <trkpt lat="42.5718" lon="1.9533">
        <ele>2356</ele>
        <time>2012-09-06T15:11:56Z</time>
      </trkpt>
      <trkpt lat="42.57185" lon="1.95368">
        <ele>2354</ele>
        <time>2012-09-06T15:12:26Z</time>
      </trkpt>
      <trkpt lat="42.57191" lon="1.95396">
        <ele>2352</ele>
        <time>2012-09-06T15:12:56Z</time>
      </trkpt>
      <trkpt lat="42.57196" lon="1.95417">
        <ele>2349</ele>
        <time>2012-09-06T15:13:27Z</time>
      </trkpt>
      <trkpt lat="42.57203" lon="1.95445">
        <ele>2345</ele>
        <time>2012-09-06T15:13:57Z</time>
      </trkpt>
      <trkpt lat="42.57211" lon="1.95461">
        <ele>2343</ele>
        <time>2012-09-06T15:14:27Z</time>
      </trkpt>
      <trkpt lat="42.57218" lon="1.95485">
        <ele>2342</ele>
        <time>2012-09-06T15:14:57Z</time>
      </trkpt>
      <trkpt lat="42.57223" lon="1.95492">
        <ele>2342</ele>
        <time>2012-09-06T15:15:28Z</time>
      </trkpt>
      <trkpt lat="42.57237" lon="1.95513">
        <ele>2341</ele>
        <time>2012-09-06T15:15:58Z</time>
      </trkpt>
      <trkpt lat="42.57253" lon="1.95533">
        <ele>2339</ele>
        <time>2012-09-06T15:16:28Z</time>
      </trkpt>
      <trkpt lat="42.57273" lon="1.95555">
        <ele>2337</ele>
        <time>2012-09-06T15:16:59Z</time>
      </trkpt>
      <trkpt lat="42.57282" lon="1.95571">
        <ele>2337</ele>
        <time>2012-09-06T15:17:29Z</time>
      </trkpt>
      <trkpt lat="42.573" lon="1.95592">
        <ele>2338</ele>
        <time>2012-09-06T15:17:59Z</time>
      </trkpt>
      <trkpt lat="42.57323" lon="1.95599">
        <ele>2337</ele>
        <time>2012-09-06T15:18:30Z</time>
      </trkpt>
      <trkpt lat="42.57343" lon="1.95619">
        <ele>2337</ele>
        <time>2012-09-06T15:19:00Z</time>
      </trkpt>
      <trkpt lat="42.57362" lon="1.95625">
        <ele>2336</ele>
        <time>2012-09-06T15:19:30Z</time>
      </trkpt>
      <trkpt lat="42.57387" lon="1.95633">
        <ele>2335</ele>
        <time>2012-09-06T15:20:01Z</time>
      </trkpt>
      <trkpt lat="42.57413" lon="1.9565">
        <ele>2335</ele>
        <time>2012-09-06T15:20:31Z</time>
      </trkpt>
      <trkpt lat="42.57429" lon="1.95658">
        <ele>2334</ele>
        <time>2012-09-06T15:21:01Z</time>
      </trkpt>
      <trkpt lat="42.57442" lon="1.95669">
        <ele>2334</ele>
        <time>2012-09-06T15:21:31Z</time>
      </trkpt>
      <trkpt lat="42.57456" lon="1.95679">
        <ele>2332</ele>
        <time>2012-09-06T15:22:02Z</time>
      </trkpt>
      <trkpt lat="42.57475" lon="1.95713">
        <ele>2331</ele>
        <time>2012-09-06T15:22:32Z</time>
      </trkpt>
      <trkpt lat="42.57491" lon="1.95741">
        <ele>2330</ele>
        <time>2012-09-06T15:23:02Z</time>
      </trkpt>
      <trkpt lat="42.575" lon="1.95764">
        <ele>2329</ele>
        <time>2012-09-06T15:23:33Z</time>
      </trkpt>
      <trkpt lat="42.57511" lon="1.95793">
        <ele>2327</ele>
        <time>2012-09-06T15:24:03Z</time>
      </trkpt>
      <trkpt lat="42.57517" lon="1.95816">
        <ele>2326</ele>
        <time>2012-09-06T15:24:33Z</time>
      </trkpt>
      <trkpt lat="42.57523" lon="1.95825">
        <ele>2324</ele>
        <time>2012-09-06T15:25:04Z</time>
      </trkpt>
      <trkpt lat="42.57517" lon="1.95847">
        <ele>2327</ele>
        <time>2012-09-06T15:25:34Z</time>
      </trkpt>
      <trkpt lat="42.57518" lon="1.95871">
        <ele>2327</ele>
        <time>2012-09-06T15:26:04Z</time>
      </trkpt>
      <trkpt lat="42.5753" lon="1.95894">
        <ele>2322</ele>
        <time>2012-09-06T15:26:35Z</time>
      </trkpt>
      <trkpt lat="42.57535" lon="1.95917">
        <ele>2320</ele>
        <time>2012-09-06T15:27:05Z</time>
      </trkpt>
      <trkpt lat="42.5754" lon="1.9595">
        <ele>2318</ele>
        <time>2012-09-06T15:27:35Z</time>
      </trkpt>
      <trkpt lat="42.57546" lon="1.95973">
        <ele>2317</ele>
        <time>2012-09-06T15:28:06Z</time>
      </trkpt>
      <trkpt lat="42.57553" lon="1.95985">
        <ele>2314</ele>
        <time>2012-09-06T15:28:36Z</time>
      </trkpt>
      <trkpt lat="42.57548" lon="1.9601">
        <ele>2316</ele>
        <time>2012-09-06T15:29:06Z</time>
      </trkpt>
      <trkpt lat="42.57538" lon="1.96045">
        <ele>2318</ele>
        <time>2012-09-06T15:29:36Z</time>
      </trkpt>
      <trkpt lat="42.57533" lon="1.96073">
        <ele>2319</ele>
        <time>2012-09-06T15:30:07Z</time>
      </trkpt>
      <trkpt lat="42.57533" lon="1.96086">
        <ele>2320</ele>
        <time>2012-09-06T15:30:37Z</time>
      </trkpt>
      <trkpt lat="42.57533" lon="1.9611">
        <ele>2320</ele>
        <time>2012-09-06T15:33:09Z</time>
      </trkpt>
      <trkpt lat="42.57543" lon="1.96138">
        <ele>2319</ele>
        <time>2012-09-06T15:33:39Z</time>
      </trkpt>
      <trkpt lat="42.57555" lon="1.96161">
        <ele>2318</ele>
        <time>2012-09-06T15:34:10Z</time>
      </trkpt>
      <trkpt lat="42.57561" lon="1.96178">
        <ele>2318</ele>
        <time>2012-09-06T15:34:40Z</time>
      </trkpt>
      <trkpt lat="42.57566" lon="1.96207">
        <ele>2318</ele>
        <time>2012-09-06T15:35:10Z</time>
      </trkpt>
      <trkpt lat="42.57556" lon="1.96239">
        <ele>2321</ele>
        <time>2012-09-06T15:35:41Z</time>
      </trkpt>
      <trkpt lat="42.57545" lon="1.96263">
        <ele>2321</ele>
        <time>2012-09-06T15:36:11Z</time>
      </trkpt>
      <trkpt lat="42.5754" lon="1.96265">
        <ele>2321</ele>
        <time>2012-09-06T15:36:41Z</time>
      </trkpt>
      <trkpt lat="42.57537" lon="1.96272">
        <ele>2321</ele>
        <time>2012-09-06T15:37:12Z</time>
      </trkpt>
      <trkpt lat="42.57537" lon="1.96285">
        <ele>2320</ele>
        <time>2012-09-06T15:49:21Z</time>
      </trkpt>
      <trkpt lat="42.57533" lon="1.96308">
        <ele>2318</ele>
        <time>2012-09-06T15:49:51Z</time>
      </trkpt>
      <trkpt lat="42.57528" lon="1.96345">
        <ele>2316</ele>
        <time>2012-09-06T15:50:22Z</time>
      </trkpt>
      <trkpt lat="42.57533" lon="1.96383">
        <ele>2314</ele>
        <time>2012-09-06T15:50:52Z</time>
      </trkpt>
      <trkpt lat="42.57532" lon="1.96417">
        <ele>2312</ele>
        <time>2012-09-06T15:51:22Z</time>
      </trkpt>
      <trkpt lat="42.5754" lon="1.96452">
        <ele>2313</ele>
        <time>2012-09-06T15:51:53Z</time>
      </trkpt>
      <trkpt lat="42.57548" lon="1.96478">
        <ele>2314</ele>
        <time>2012-09-06T15:52:23Z</time>
      </trkpt>
      <trkpt lat="42.57554" lon="1.96515">
        <ele>2314</ele>
        <time>2012-09-06T15:52:53Z</time>
      </trkpt>
      <trkpt lat="42.5756" lon="1.96548">
        <ele>2313</ele>
        <time>2012-09-06T15:53:23Z</time>
      </trkpt>
      <trkpt lat="42.57568" lon="1.96576">
        <ele>2310</ele>
        <time>2012-09-06T15:53:54Z</time>
      </trkpt>
      <trkpt lat="42.57575" lon="1.96606">
        <ele>2308</ele>
        <time>2012-09-06T15:54:24Z</time>
      </trkpt>
      <trkpt lat="42.5757" lon="1.96638">
        <ele>2308</ele>
        <time>2012-09-06T15:54:54Z</time>
      </trkpt>
      <trkpt lat="42.5757" lon="1.96649">
        <ele>2308</ele>
        <time>2012-09-06T15:55:25Z</time>
      </trkpt>
      <trkpt lat="42.5757" lon="1.96665">
        <ele>2307</ele>
        <time>2012-09-06T15:55:55Z</time>
      </trkpt>
      <trkpt lat="42.57576" lon="1.96686">
        <ele>2306</ele>
        <time>2012-09-06T15:56:25Z</time>
      </trkpt>
      <trkpt lat="42.57582" lon="1.96702">
        <ele>2306</ele>
        <time>2012-09-06T15:56:55Z</time>
      </trkpt>
      <trkpt lat="42.57579" lon="1.9672">
        <ele>2305</ele>
        <time>2012-09-06T15:57:26Z</time>
      </trkpt>
      <trkpt lat="42.57575" lon="1.96735">
        <ele>2303</ele>
        <time>2012-09-06T15:57:56Z</time>
      </trkpt>
      <trkpt lat="42.57582" lon="1.96751">
        <ele>2302</ele>
        <time>2012-09-06T15:58:26Z</time>
      </trkpt>
      <trkpt lat="42.57592" lon="1.96772">
        <ele>2300</ele>
        <time>2012-09-06T15:58:57Z</time>
      </trkpt>
      <trkpt lat="42.57591" lon="1.96789">
        <ele>2299</ele>
        <time>2012-09-06T15:59:27Z</time>
      </trkpt>
      <trkpt lat="42.57584" lon="1.96813">
        <ele>2299</ele>
        <time>2012-09-06T15:59:57Z</time>
      </trkpt>
      <trkpt lat="42.5758" lon="1.96835">
        <ele>2299</ele>
        <time>2012-09-06T16:00:28Z</time>
      </trkpt>
      <trkpt lat="42.57576" lon="1.9685">
        <ele>2297</ele>
        <time>2012-09-06T16:00:58Z</time>
      </trkpt>
      <trkpt lat="42.57572" lon="1.96862">
        <ele>2295</ele>
        <time>2012-09-06T16:01:28Z</time>
      </trkpt>
      <trkpt lat="42.57567" lon="1.96872">
        <ele>2294</ele>
        <time>2012-09-06T16:01:59Z</time>
      </trkpt>
      <trkpt lat="42.57558" lon="1.96897">
        <ele>2290</ele>
        <time>2012-09-06T16:02:29Z</time>
      </trkpt>
      <trkpt lat="42.5756" lon="1.96923">
        <ele>2287</ele>
        <time>2012-09-06T16:02:59Z</time>
      </trkpt>
      <trkpt lat="42.57561" lon="1.96934">
        <ele>2286</ele>
        <time>2012-09-06T16:03:30Z</time>
      </trkpt>
      <trkpt lat="42.57557" lon="1.96954">
        <ele>2282</ele>
        <time>2012-09-06T16:04:00Z</time>
      </trkpt>
      <trkpt lat="42.57542" lon="1.9696">
        <ele>2279</ele>
        <time>2012-09-06T16:04:30Z</time>
      </trkpt>
      <trkpt lat="42.57535" lon="1.96981">
        <ele>2274</ele>
        <time>2012-09-06T16:05:01Z</time>
      </trkpt>
      <trkpt lat="42.57532" lon="1.96988">
        <ele>2272</ele>
        <time>2012-09-06T16:05:31Z</time>
      </trkpt>
      <trkpt lat="42.5753" lon="1.97002">
        <ele>2270</ele>
        <time>2012-09-06T16:06:01Z</time>
      </trkpt>
      <trkpt lat="42.5752" lon="1.97018">
        <ele>2266</ele>
        <time>2012-09-06T16:06:32Z</time>
      </trkpt>
      <trkpt lat="42.57513" lon="1.97043">
        <ele>2262</ele>
        <time>2012-09-06T16:07:02Z</time>
      </trkpt>
      <trkpt lat="42.57509" lon="1.9706">
        <ele>2260</ele>
        <time>2012-09-06T16:07:32Z</time>
      </trkpt>
      <trkpt lat="42.57502" lon="1.97079">
        <ele>2258</ele>
        <time>2012-09-06T16:08:03Z</time>
      </trkpt>
      <trkpt lat="42.57497" lon="1.97096">
        <ele>2256</ele>
        <time>2012-09-06T16:08:33Z</time>
      </trkpt>
      <trkpt lat="42.57494" lon="1.97107">
        <ele>2254</ele>
        <time>2012-09-06T16:09:03Z</time>
      </trkpt>
      <trkpt lat="42.57491" lon="1.97124">
        <ele>2251</ele>
        <time>2012-09-06T16:09:33Z</time>
      </trkpt>
      <trkpt lat="42.57486" lon="1.97143">
        <ele>2248</ele>
        <time>2012-09-06T16:10:04Z</time>
      </trkpt>
      <trkpt lat="42.57478" lon="1.97165">
        <ele>2244</ele>
        <time>2012-09-06T16:10:34Z</time>
      </trkpt>
      <trkpt lat="42.57465" lon="1.97187">
        <ele>2239</ele>
        <time>2012-09-06T16:11:04Z</time>
      </trkpt>
      <trkpt lat="42.57453" lon="1.97207">
        <ele>2234</ele>
        <time>2012-09-06T16:11:34Z</time>
      </trkpt>
      <trkpt lat="42.5745" lon="1.9723">
        <ele>2233</ele>
        <time>2012-09-06T16:12:05Z</time>
      </trkpt>
      <trkpt lat="42.57437" lon="1.97235">
        <ele>2232</ele>
        <time>2012-09-06T16:12:35Z</time>
      </trkpt>
      <trkpt lat="42.57432" lon="1.9724">
        <ele>2231</ele>
        <time>2012-09-06T16:13:05Z</time>
      </trkpt>
      <trkpt lat="42.5742" lon="1.97253">
        <ele>2231</ele>
        <time>2012-09-06T16:13:36Z</time>
      </trkpt>
      <trkpt lat="42.57403" lon="1.97275">
        <ele>2231</ele>
        <time>2012-09-06T16:14:06Z</time>
      </trkpt>
      <trkpt lat="42.574" lon="1.97304">
        <ele>2233</ele>
        <time>2012-09-06T16:14:36Z</time>
      </trkpt>
      <trkpt lat="42.57398" lon="1.9734">
        <ele>2235</ele>
        <time>2012-09-06T16:15:07Z</time>
      </trkpt>
      <trkpt lat="42.57392" lon="1.97368">
        <ele>2236</ele>
        <time>2012-09-06T16:15:37Z</time>
      </trkpt>
      <trkpt lat="42.57378" lon="1.97403">
        <ele>2237</ele>
        <time>2012-09-06T16:16:07Z</time>
      </trkpt>
      <trkpt lat="42.57366" lon="1.97431">
        <ele>2237</ele>
        <time>2012-09-06T16:16:37Z</time>
      </trkpt>
      <trkpt lat="42.57348" lon="1.97465">
        <ele>2238</ele>
        <time>2012-09-06T16:17:08Z</time>
      </trkpt>
      <trkpt lat="42.57325" lon="1.97495">
        <ele>2237</ele>
        <time>2012-09-06T16:17:38Z</time>
      </trkpt>
      <trkpt lat="42.57315" lon="1.97527">
        <ele>2232</ele>
        <time>2012-09-06T16:18:08Z</time>
      </trkpt>
      <trkpt lat="42.57303" lon="1.97553">
        <ele>2230</ele>
        <time>2012-09-06T16:18:39Z</time>
      </trkpt>
      <trkpt lat="42.5729" lon="1.97578">
        <ele>2228</ele>
        <time>2012-09-06T16:19:09Z</time>
      </trkpt>
      <trkpt lat="42.5728" lon="1.97592">
        <ele>2227</ele>
        <time>2012-09-06T16:19:39Z</time>
      </trkpt>
      <trkpt lat="42.5727" lon="1.9761">
        <ele>2224</ele>
        <time>2012-09-06T16:20:10Z</time>
      </trkpt>
      <trkpt lat="42.57265" lon="1.97635">
        <ele>2220</ele>
        <time>2012-09-06T16:20:40Z</time>
      </trkpt>
      <trkpt lat="42.5726" lon="1.97648">
        <ele>2220</ele>
        <time>2012-09-06T16:21:10Z</time>
      </trkpt>
      <trkpt lat="42.57252" lon="1.9766">
        <ele>2220</ele>
        <time>2012-09-06T16:21:41Z</time>
      </trkpt>
      <trkpt lat="42.5724" lon="1.97683">
        <ele>2218</ele>
        <time>2012-09-06T16:22:11Z</time>
      </trkpt>
      <trkpt lat="42.5723" lon="1.97707">
        <ele>2216</ele>
        <time>2012-09-06T16:22:41Z</time>
      </trkpt>
      <trkpt lat="42.57213" lon="1.97737">
        <ele>2215</ele>
        <time>2012-09-06T16:23:12Z</time>
      </trkpt>
      <trkpt lat="42.57192" lon="1.9777">
        <ele>2212</ele>
        <time>2012-09-06T16:23:42Z</time>
      </trkpt>
      <trkpt lat="42.57173" lon="1.97785">
        <ele>2209</ele>
        <time>2012-09-06T16:24:12Z</time>
      </trkpt>
      <trkpt lat="42.57165" lon="1.97805">
        <ele>2206</ele>
        <time>2012-09-06T16:24:42Z</time>
      </trkpt>
      <trkpt lat="42.57155" lon="1.97823">
        <ele>2204</ele>
        <time>2012-09-06T16:25:13Z</time>
      </trkpt>
      <trkpt lat="42.57142" lon="1.9784">
        <ele>2201</ele>
        <time>2012-09-06T16:25:43Z</time>
      </trkpt>
      <trkpt lat="42.57135" lon="1.97852">
        <ele>2199</ele>
        <time>2012-09-06T16:26:13Z</time>
      </trkpt>
      <trkpt lat="42.57125" lon="1.97858">
        <ele>2197</ele>
        <time>2012-09-06T16:26:44Z</time>
      </trkpt>
      <trkpt lat="42.57115" lon="1.97863">
        <ele>2194</ele>
        <time>2012-09-06T16:27:14Z</time>
      </trkpt>
      <trkpt lat="42.57097" lon="1.97873">
        <ele>2190</ele>
        <time>2012-09-06T16:27:44Z</time>
      </trkpt>
      <trkpt lat="42.57078" lon="1.97882">
        <ele>2186</ele>
        <time>2012-09-06T16:28:15Z</time>
      </trkpt>
      <trkpt lat="42.57058" lon="1.97902">
        <ele>2183</ele>
        <time>2012-09-06T16:28:45Z</time>
      </trkpt>
      <trkpt lat="42.5704" lon="1.97917">
        <ele>2180</ele>
        <time>2012-09-06T16:29:15Z</time>
      </trkpt>
      <trkpt lat="42.57027" lon="1.97938">
        <ele>2177</ele>
        <time>2012-09-06T16:29:46Z</time>
      </trkpt>
      <trkpt lat="42.57" lon="1.97942">
        <ele>2177</ele>
        <time>2012-09-06T16:30:16Z</time>
      </trkpt>
      <trkpt lat="42.56987" lon="1.97932">
        <ele>2177</ele>
        <time>2012-09-06T16:30:46Z</time>
      </trkpt>
      <trkpt lat="42.56977" lon="1.97931">
        <ele>2177</ele>
        <time>2012-09-06T16:31:17Z</time>
      </trkpt>
      <trkpt lat="42.56965" lon="1.97927">
        <ele>2177</ele>
        <time>2012-09-06T16:31:47Z</time>
      </trkpt>
      <trkpt lat="42.56947" lon="1.97957">
        <ele>2175</ele>
        <time>2012-09-06T16:32:17Z</time>
      </trkpt>
      <trkpt lat="42.56932" lon="1.97983">
        <ele>2174</ele>
        <time>2012-09-06T16:32:48Z</time>
      </trkpt>
      <trkpt lat="42.56907" lon="1.98037">
        <ele>2172</ele>
        <time>2012-09-06T16:33:18Z</time>
      </trkpt>
      <trkpt lat="42.56883" lon="1.98055">
        <ele>2172</ele>
        <time>2012-09-06T16:33:48Z</time>
      </trkpt>
      <trkpt lat="42.56865" lon="1.98065">
        <ele>2171</ele>
        <time>2012-09-06T16:34:19Z</time>
      </trkpt>
      <trkpt lat="42.56842" lon="1.98087">
        <ele>2171</ele>
        <time>2012-09-06T16:34:49Z</time>
      </trkpt>
      <trkpt lat="42.56828" lon="1.98107">
        <ele>2171</ele>
        <time>2012-09-06T16:35:19Z</time>
      </trkpt>
      <trkpt lat="42.5681" lon="1.9812">
        <ele>2171</ele>
        <time>2012-09-06T16:35:50Z</time>
      </trkpt>
      <trkpt lat="42.5679" lon="1.98138">
        <ele>2172</ele>
        <time>2012-09-06T16:36:20Z</time>
      </trkpt>
      <trkpt lat="42.56778" lon="1.98153">
        <ele>2173</ele>
        <time>2012-09-06T16:36:50Z</time>
      </trkpt>
      <trkpt lat="42.56775" lon="1.98173">
        <ele>2174</ele>
        <time>2012-09-06T16:37:20Z</time>
      </trkpt>
      <trkpt lat="42.56764" lon="1.9818">
        <ele>2174</ele>
        <time>2012-09-06T16:37:51Z</time>
      </trkpt>
      <trkpt lat="42.56743" lon="1.98197">
        <ele>2173</ele>
        <time>2012-09-06T16:38:21Z</time>
      </trkpt>
      <trkpt lat="42.56729" lon="1.98209">
        <ele>2170</ele>
        <time>2012-09-06T16:38:51Z</time>
      </trkpt>
      <trkpt lat="42.56712" lon="1.98224">
        <ele>2167</ele>
        <time>2012-09-06T16:39:21Z</time>
      </trkpt>
      <trkpt lat="42.56703" lon="1.98228">
        <ele>2165</ele>
        <time>2012-09-06T16:39:52Z</time>
      </trkpt>
      <trkpt lat="42.56677" lon="1.98245">
        <ele>2157</ele>
        <time>2012-09-06T16:40:22Z</time>
      </trkpt>
      <trkpt lat="42.56658" lon="1.98255">
        <ele>2152</ele>
        <time>2012-09-06T16:40:52Z</time>
      </trkpt>
      <trkpt lat="42.56652" lon="1.98257">
        <ele>2151</ele>
        <time>2012-09-06T16:41:23Z</time>
      </trkpt>
      <trkpt lat="42.5664" lon="1.98262">
        <ele>2148</ele>
        <time>2012-09-06T16:41:53Z</time>
      </trkpt>
      <trkpt lat="42.56627" lon="1.98262">
        <ele>2148</ele>
        <time>2012-09-06T16:42:23Z</time>
      </trkpt>
      <trkpt lat="42.56612" lon="1.98264">
        <ele>2146</ele>
        <time>2012-09-06T16:42:54Z</time>
      </trkpt>
      <trkpt lat="42.56604" lon="1.98266">
        <ele>2146</ele>
        <time>2012-09-06T16:43:24Z</time>
      </trkpt>
      <trkpt lat="42.56593" lon="1.98265">
        <ele>2146</ele>
        <time>2012-09-06T16:43:54Z</time>
      </trkpt>
      <trkpt lat="42.56575" lon="1.98282">
        <ele>2144</ele>
        <time>2012-09-06T16:44:25Z</time>
      </trkpt>
      <trkpt lat="42.56565" lon="1.98288">
        <ele>2143</ele>
        <time>2012-09-06T16:44:55Z</time>
      </trkpt>
      <trkpt lat="42.56547" lon="1.98295">
        <ele>2143</ele>
        <time>2012-09-06T16:45:26Z</time>
      </trkpt>
      <trkpt lat="42.5654" lon="1.98297">
        <ele>2144</ele>
        <time>2012-09-06T16:45:56Z</time>
      </trkpt>
      <trkpt lat="42.5653" lon="1.98328">
        <ele>2142</ele>
        <time>2012-09-06T16:46:26Z</time>
      </trkpt>
      <trkpt lat="42.56505" lon="1.98371">
        <ele>2142</ele>
        <time>2012-09-06T16:46:57Z</time>
      </trkpt>
      <trkpt lat="42.5649" lon="1.98405">
        <ele>2142</ele>
        <time>2012-09-06T16:47:27Z</time>
      </trkpt>
      <trkpt lat="42.5648" lon="1.9844">
        <ele>2141</ele>
        <time>2012-09-06T16:47:57Z</time>
      </trkpt>
      <trkpt lat="42.56477" lon="1.9846">
        <ele>2141</ele>
        <time>2012-09-06T16:48:28Z</time>
      </trkpt>
      <trkpt lat="42.56466" lon="1.98487">
        <ele>2141</ele>
        <time>2012-09-06T16:48:58Z</time>
      </trkpt>
      <trkpt lat="42.56443" lon="1.98503">
        <ele>2141</ele>
        <time>2012-09-06T16:49:28Z</time>
      </trkpt>
      <trkpt lat="42.56433" lon="1.9851">
        <ele>2141</ele>
        <time>2012-09-06T16:49:59Z</time>
      </trkpt>
      <trkpt lat="42.56432" lon="1.98525">
        <ele>2140</ele>
        <time>2012-09-06T16:50:29Z</time>
      </trkpt>
      <trkpt lat="42.5642" lon="1.98559">
        <ele>2137</ele>
        <time>2012-09-06T16:50:59Z</time>
      </trkpt>
      <trkpt lat="42.56403" lon="1.9858">
        <ele>2134</ele>
        <time>2012-09-06T16:51:29Z</time>
      </trkpt>
      <trkpt lat="42.56384" lon="1.98593">
        <ele>2133</ele>
        <time>2012-09-06T16:52:00Z</time>
      </trkpt>
      <trkpt lat="42.56358" lon="1.98618">
        <ele>2129</ele>
        <time>2012-09-06T16:52:30Z</time>
      </trkpt>
      <trkpt lat="42.5634" lon="1.98638">
        <ele>2126</ele>
        <time>2012-09-06T16:53:00Z</time>
      </trkpt>
      <trkpt lat="42.56338" lon="1.98649">
        <ele>2124</ele>
        <time>2012-09-06T16:53:31Z</time>
      </trkpt>
      <trkpt lat="42.5633" lon="1.98665">
        <ele>2121</ele>
        <time>2012-09-06T16:54:01Z</time>
      </trkpt>
      <trkpt lat="42.56327" lon="1.98681">
        <ele>2118</ele>
        <time>2012-09-06T16:54:31Z</time>
      </trkpt>
      <trkpt lat="42.5631" lon="1.98707">
        <ele>2115</ele>
        <time>2012-09-06T16:55:01Z</time>
      </trkpt>
      <trkpt lat="42.56283" lon="1.9872">
        <ele>2114</ele>
        <time>2012-09-06T16:55:32Z</time>
      </trkpt>
      <trkpt lat="42.56271" lon="1.98734">
        <ele>2114</ele>
        <time>2012-09-06T16:56:02Z</time>
      </trkpt>
      <trkpt lat="42.56265" lon="1.98745">
        <ele>2112</ele>
        <time>2012-09-06T16:56:32Z</time>
      </trkpt>
      <trkpt lat="42.56262" lon="1.98758">
        <ele>2109</ele>
        <time>2012-09-06T16:57:03Z</time>
      </trkpt>
      <trkpt lat="42.56258" lon="1.98768">
        <ele>2107</ele>
        <time>2012-09-06T16:57:33Z</time>
      </trkpt>
      <trkpt lat="42.56245" lon="1.98773">
        <ele>2107</ele>
        <time>2012-09-06T16:58:03Z</time>
      </trkpt>
      <trkpt lat="42.56232" lon="1.98788">
        <ele>2104</ele>
        <time>2012-09-06T16:58:34Z</time>
      </trkpt>
      <trkpt lat="42.56223" lon="1.98801">
        <ele>2102</ele>
        <time>2012-09-06T16:59:04Z</time>
      </trkpt>
      <trkpt lat="42.56212" lon="1.98809">
        <ele>2102</ele>
        <time>2012-09-06T16:59:34Z</time>
      </trkpt>
      <trkpt lat="42.56195" lon="1.98837">
        <ele>2100</ele>
        <time>2012-09-06T17:00:05Z</time>
      </trkpt>
      <trkpt lat="42.56174" lon="1.98867">
        <ele>2098</ele>
        <time>2012-09-06T17:00:35Z</time>
      </trkpt>
      <trkpt lat="42.56158" lon="1.9889">
        <ele>2097</ele>
        <time>2012-09-06T17:01:05Z</time>
      </trkpt>
      <trkpt lat="42.56145" lon="1.98904">
        <ele>2096</ele>
        <time>2012-09-06T17:01:36Z</time>
      </trkpt>
      <trkpt lat="42.5613" lon="1.9892">
        <ele>2096</ele>
        <time>2012-09-06T17:02:06Z</time>
      </trkpt>
      <trkpt lat="42.56121" lon="1.98929">
        <ele>2096</ele>
        <time>2012-09-06T17:02:37Z</time>
      </trkpt>
      <trkpt lat="42.5611" lon="1.98947">
        <ele>2094</ele>
        <time>2012-09-06T17:03:07Z</time>
      </trkpt>
      <trkpt lat="42.56095" lon="1.98968">
        <ele>2092</ele>
        <time>2012-09-06T17:03:37Z</time>
      </trkpt>
      <trkpt lat="42.5608" lon="1.98997">
        <ele>2089</ele>
        <time>2012-09-06T17:04:07Z</time>
      </trkpt>
      <trkpt lat="42.56073" lon="1.99017">
        <ele>2085</ele>
        <time>2012-09-06T17:04:38Z</time>
      </trkpt>
      <trkpt lat="42.56067" lon="1.99025">
        <ele>2083</ele>
        <time>2012-09-06T17:05:08Z</time>
      </trkpt>
      <trkpt lat="42.56043" lon="1.99045">
        <ele>2079</ele>
        <time>2012-09-06T17:05:38Z</time>
      </trkpt>
      <trkpt lat="42.56036" lon="1.99057">
        <ele>2078</ele>
        <time>2012-09-06T17:06:09Z</time>
      </trkpt>
      <trkpt lat="42.56029" lon="1.99069">
        <ele>2077</ele>
        <time>2012-09-06T17:06:39Z</time>
      </trkpt>
      <trkpt lat="42.56025" lon="1.99082">
        <ele>2075</ele>
        <time>2012-09-06T17:07:09Z</time>
      </trkpt>
      <trkpt lat="42.5602" lon="1.99105">
        <ele>2071</ele>
        <time>2012-09-06T17:07:39Z</time>
      </trkpt>
      <trkpt lat="42.56017" lon="1.9914">
        <ele>2068</ele>
        <time>2012-09-06T17:08:10Z</time>
      </trkpt>
      <trkpt lat="42.56012" lon="1.99162">
        <ele>2065</ele>
        <time>2012-09-06T17:08:40Z</time>
      </trkpt>
      <trkpt lat="42.5601" lon="1.99179">
        <ele>2063</ele>
        <time>2012-09-06T17:09:10Z</time>
      </trkpt>
      <trkpt lat="42.56007" lon="1.9919">
        <ele>2062</ele>
        <time>2012-09-06T17:09:41Z</time>
      </trkpt>
      <trkpt lat="42.55998" lon="1.99223">
        <ele>2057</ele>
        <time>2012-09-06T17:10:11Z</time>
      </trkpt>
      <trkpt lat="42.55995" lon="1.99287">
        <ele>2057</ele>
        <time>2012-09-06T17:10:41Z</time>
      </trkpt>
      <trkpt lat="42.55998" lon="1.99302">
        <ele>2057</ele>
        <time>2012-09-06T17:11:12Z</time>
      </trkpt>
      <trkpt lat="42.56" lon="1.99327">
        <ele>2058</ele>
        <time>2012-09-06T17:11:42Z</time>
      </trkpt>
      <trkpt lat="42.56003" lon="1.99342">
        <ele>2058</ele>
        <time>2012-09-06T17:12:12Z</time>
      </trkpt>
      <trkpt lat="42.56007" lon="1.99351">
        <ele>2059</ele>
        <time>2012-09-06T17:12:43Z</time>
      </trkpt>
      <trkpt lat="42.5601" lon="1.99363">
        <ele>2058</ele>
        <time>2012-09-06T17:13:13Z</time>
      </trkpt>
      <trkpt lat="42.56009" lon="1.99374">
        <ele>2057</ele>
        <time>2012-09-06T17:13:43Z</time>
      </trkpt>
      <trkpt lat="42.56013" lon="1.99383">
        <ele>2057</ele>
        <time>2012-09-06T17:14:14Z</time>
      </trkpt>
      <trkpt lat="42.56014" lon="1.99386">
        <ele>2057</ele>
        <time>2012-09-06T17:14:44Z</time>
      </trkpt>
      <trkpt lat="42.56015" lon="1.99391">
        <ele>2057</ele>
        <time>2012-09-06T17:15:14Z</time>
      </trkpt>
      <trkpt lat="42.56018" lon="1.994">
        <ele>2056</ele>
        <time>2012-09-06T17:15:45Z</time>
      </trkpt>
      <trkpt lat="42.56023" lon="1.99413">
        <ele>2056</ele>
        <time>2012-09-06T17:16:15Z</time>
      </trkpt>
      <trkpt lat="42.56023" lon="1.99422">
        <ele>2055</ele>
        <time>2012-09-06T17:16:45Z</time>
      </trkpt>
      <trkpt lat="42.56025" lon="1.99432">
        <ele>2054</ele>
        <time>2012-09-06T17:17:16Z</time>
      </trkpt>
      <trkpt lat="42.56027" lon="1.99443">
        <ele>2052</ele>
        <time>2012-09-06T17:17:46Z</time>
      </trkpt>
      <trkpt lat="42.56032" lon="1.99465">
        <ele>2051</ele>
        <time>2012-09-06T17:18:16Z</time>
      </trkpt>
      <trkpt lat="42.56028" lon="1.99478">
        <ele>2048</ele>
        <time>2012-09-06T17:18:47Z</time>
      </trkpt>
      <trkpt lat="42.56026" lon="1.99494">
        <ele>2046</ele>
        <time>2012-09-06T17:19:17Z</time>
      </trkpt>
      <trkpt lat="42.56021" lon="1.99514">
        <ele>2042</ele>
        <time>2012-09-06T17:19:47Z</time>
      </trkpt>
      <trkpt lat="42.5601" lon="1.99537">
        <ele>2038</ele>
        <time>2012-09-06T17:20:17Z</time>
      </trkpt>
      <trkpt lat="42.56009" lon="1.99568">
        <ele>2036</ele>
        <time>2012-09-06T17:20:48Z</time>
      </trkpt>
      <trkpt lat="42.55998" lon="1.99614">
        <ele>2031</ele>
        <time>2012-09-06T17:21:18Z</time>
      </trkpt>
      <trkpt lat="42.55984" lon="1.99641">
        <ele>2028</ele>
        <time>2012-09-06T17:21:48Z</time>
      </trkpt>
      <trkpt lat="42.55976" lon="1.99658">
        <ele>2026</ele>
        <time>2012-09-06T17:22:19Z</time>
      </trkpt>
      <trkpt lat="42.5597" lon="1.99687">
        <ele>2024</ele>
        <time>2012-09-06T17:22:49Z</time>
      </trkpt>
      <trkpt lat="42.55977" lon="1.99705">
        <ele>2024</ele>
        <time>2012-09-06T17:23:19Z</time>
      </trkpt>
      <trkpt lat="42.55983" lon="1.99741">
        <ele>2022</ele>
        <time>2012-09-06T17:23:50Z</time>
      </trkpt>
      <trkpt lat="42.55987" lon="1.99765">
        <ele>2019</ele>
        <time>2012-09-06T17:24:20Z</time>
      </trkpt>
      <trkpt lat="42.55982" lon="1.99793">
        <ele>2017</ele>
        <time>2012-09-06T17:24:50Z</time>
      </trkpt>
      <trkpt lat="42.55981" lon="1.9981">
        <ele>2016</ele>
        <time>2012-09-06T17:25:21Z</time>
      </trkpt>
      <trkpt lat="42.55975" lon="1.9984">
        <ele>2015</ele>
        <time>2012-09-06T17:25:51Z</time>
      </trkpt>
      <trkpt lat="42.55972" lon="1.9987">
        <ele>2013</ele>
        <time>2012-09-06T17:26:21Z</time>
      </trkpt>
      <trkpt lat="42.55969" lon="1.99906">
        <ele>2011</ele>
        <time>2012-09-06T17:26:51Z</time>
      </trkpt>
      <trkpt lat="42.5597" lon="1.99932">
        <ele>2009</ele>
        <time>2012-09-06T17:27:22Z</time>
      </trkpt>
      <trkpt lat="42.55976" lon="1.99972">
        <ele>2006</ele>
        <time>2012-09-06T17:27:52Z</time>
      </trkpt>
      <trkpt lat="42.55972" lon="2.00008">
        <ele>2002</ele>
        <time>2012-09-06T17:28:22Z</time>
      </trkpt>
      <trkpt lat="42.55977" lon="2.00048">
        <ele>2001</ele>
        <time>2012-09-06T17:28:53Z</time>
      </trkpt>
      <trkpt lat="42.55975" lon="2.00084">
        <ele>2000</ele>
        <time>2012-09-06T17:29:23Z</time>
      </trkpt>
      <trkpt lat="42.55963" lon="2.00122">
        <ele>1998</ele>
        <time>2012-09-06T17:29:53Z</time>
      </trkpt>
      <trkpt lat="42.55946" lon="2.00158">
        <ele>1994</ele>
        <time>2012-09-06T17:30:23Z</time>
      </trkpt>
      <trkpt lat="42.5594" lon="2.0016">
        <ele>1993</ele>
        <time>2012-09-06T17:30:54Z</time>
      </trkpt>
    </trkseg>
  </trk>
</gpx>